<?xml version="1.0" encoding="UTF-8" standalone="no" ?>
<gpx xmlns="http://www.topografix.com/GPX/1/1" xmlns:xsi="http://www.w3.org/2001/XMLSchema-instance" xsi:schemaLocation="http://www.topografix.com/GPX/1/1 http://www.topografix.com/GPX/1/1/gpx.xsd" version="1.1" creator="VisuGPX - https://www.visugpx.com">
  <metadata>
    <name>La Valette</name>
    <desc><![CDATA[Club VTT Grésifreeride - 11 participants
Circuit Besse - La Valette - Clavans le Bas]]></desc>
  </metadata>
  <trk>
    <name><![CDATA[Col de la Valette]]></name>
    <desc><![CDATA[<h1>OruxMaps</h1><br /><hr align="center" width="480" style="height: 2px; width: 517px"/><h2>Nom: Col de la Valette</h2><br /><p>Temps de départ: 06/03/2012 09:35</p><p>Temps d'arrivée: 06/03/2012 16:11</p><p>Distance: 26,9 km (06:36)</p><p>Temps déplacement: 04:44</p><p>Vitesse moyenne: 4,1 km/h</p><p>Vitesse moyenne: 5,7 km/h</p><p>Vitess Max.: 39,2 km/h</p><p>Altitude minimale: 1363 m</p><p>Altitude maximale: 2477 m</p><p>Vitesse d'élévation: 264,1 m/h</p><p>Vitesse de descente: -605,2 m/h</p><p>Gain Altitude: 1097 m</p><p>Perte Altitude: -1304 m</p><p>Temps d'élévation: 04:09</p><p>Temps de descente: 02:09</p><hr align="center" width="480" style="height: 2px; width: 517px"/>]]></desc>
    <trkseg>
      <trkpt lat="45.07313" lon="6.17416">
        <ele>1579.541</ele>
        <time>2012-06-03T07:35:30Z</time>
      </trkpt>
      <trkpt lat="45.07299" lon="6.17434">
        <ele>1564.1309</ele>
        <time>2012-06-03T07:37:46Z</time>
      </trkpt>
      <trkpt lat="45.07308" lon="6.17457">
        <ele>1564.2311</ele>
        <time>2012-06-03T07:37:55Z</time>
      </trkpt>
      <trkpt lat="45.07321" lon="6.17474">
        <ele>1565.0894</ele>
        <time>2012-06-03T07:38:04Z</time>
      </trkpt>
      <trkpt lat="45.07321" lon="6.17447">
        <ele>1567.306</ele>
        <time>2012-06-03T07:38:17Z</time>
      </trkpt>
      <trkpt lat="45.07312" lon="6.17423">
        <ele>1568.4265</ele>
        <time>2012-06-03T07:38:27Z</time>
      </trkpt>
      <trkpt lat="45.07308" lon="6.17397">
        <ele>1569.9155</ele>
        <time>2012-06-03T07:38:39Z</time>
      </trkpt>
      <trkpt lat="45.07306" lon="6.1737">
        <ele>1572.2227</ele>
        <time>2012-06-03T07:38:51Z</time>
      </trkpt>
      <trkpt lat="45.07299" lon="6.17345">
        <ele>1573.8812</ele>
        <time>2012-06-03T07:39:03Z</time>
      </trkpt>
      <trkpt lat="45.07294" lon="6.17319">
        <ele>1575.5676</ele>
        <time>2012-06-03T07:39:15Z</time>
      </trkpt>
      <trkpt lat="45.07293" lon="6.17292">
        <ele>1577.2068</ele>
        <time>2012-06-03T07:39:26Z</time>
      </trkpt>
      <trkpt lat="45.07295" lon="6.17267">
        <ele>1578.7874</ele>
        <time>2012-06-03T07:39:37Z</time>
      </trkpt>
      <trkpt lat="45.07301" lon="6.17241">
        <ele>1580.2672</ele>
        <time>2012-06-03T07:39:49Z</time>
      </trkpt>
      <trkpt lat="45.07305" lon="6.17215">
        <ele>1581.6855</ele>
        <time>2012-06-03T07:40:02Z</time>
      </trkpt>
      <trkpt lat="45.07315" lon="6.17238">
        <ele>1582.6862</ele>
        <time>2012-06-03T07:40:21Z</time>
      </trkpt>
      <trkpt lat="45.07319" lon="6.17264">
        <ele>1582.3823</ele>
        <time>2012-06-03T07:40:33Z</time>
      </trkpt>
      <trkpt lat="45.07325" lon="6.17289">
        <ele>1583.2688</ele>
        <time>2012-06-03T07:40:46Z</time>
      </trkpt>
      <trkpt lat="45.07333" lon="6.17313">
        <ele>1584.2113</ele>
        <time>2012-06-03T07:40:58Z</time>
      </trkpt>
      <trkpt lat="45.07346" lon="6.17333">
        <ele>1585.207</ele>
        <time>2012-06-03T07:41:10Z</time>
      </trkpt>
      <trkpt lat="45.07357" lon="6.17353">
        <ele>1586.6349</ele>
        <time>2012-06-03T07:41:21Z</time>
      </trkpt>
      <trkpt lat="45.07366" lon="6.17377">
        <ele>1588.0273</ele>
        <time>2012-06-03T07:41:33Z</time>
      </trkpt>
      <trkpt lat="45.07375" lon="6.17402">
        <ele>1589.4014</ele>
        <time>2012-06-03T07:41:45Z</time>
      </trkpt>
      <trkpt lat="45.07387" lon="6.17424">
        <ele>1590.7909</ele>
        <time>2012-06-03T07:41:57Z</time>
      </trkpt>
      <trkpt lat="45.074" lon="6.17445">
        <ele>1592.8147</ele>
        <time>2012-06-03T07:42:08Z</time>
      </trkpt>
      <trkpt lat="45.07413" lon="6.17463">
        <ele>1597.3335</ele>
        <time>2012-06-03T07:42:18Z</time>
      </trkpt>
      <trkpt lat="45.07428" lon="6.17481">
        <ele>1600.0103</ele>
        <time>2012-06-03T07:42:29Z</time>
      </trkpt>
      <trkpt lat="45.07443" lon="6.17496">
        <ele>1601.7598</ele>
        <time>2012-06-03T07:42:40Z</time>
      </trkpt>
      <trkpt lat="45.07459" lon="6.17509">
        <ele>1603.1825</ele>
        <time>2012-06-03T07:42:51Z</time>
      </trkpt>
      <trkpt lat="45.07475" lon="6.17519">
        <ele>1604.5676</ele>
        <time>2012-06-03T07:43:02Z</time>
      </trkpt>
      <trkpt lat="45.07492" lon="6.17531">
        <ele>1606.0962</ele>
        <time>2012-06-03T07:43:14Z</time>
      </trkpt>
      <trkpt lat="45.0751" lon="6.17543">
        <ele>1608.216</ele>
        <time>2012-06-03T07:43:27Z</time>
      </trkpt>
      <trkpt lat="45.07526" lon="6.17555">
        <ele>1610.5708</ele>
        <time>2012-06-03T07:43:39Z</time>
      </trkpt>
      <trkpt lat="45.07542" lon="6.17567">
        <ele>1612.9023</ele>
        <time>2012-06-03T07:43:51Z</time>
      </trkpt>
      <trkpt lat="45.07559" lon="6.17578">
        <ele>1614.7018</ele>
        <time>2012-06-03T07:44:04Z</time>
      </trkpt>
      <trkpt lat="45.07576" lon="6.17589">
        <ele>1616.9344</ele>
        <time>2012-06-03T07:44:18Z</time>
      </trkpt>
      <trkpt lat="45.07591" lon="6.17603">
        <ele>1619.2789</ele>
        <time>2012-06-03T07:44:31Z</time>
      </trkpt>
      <trkpt lat="45.07607" lon="6.17616">
        <ele>1621.3143</ele>
        <time>2012-06-03T07:44:44Z</time>
      </trkpt>
      <trkpt lat="45.07625" lon="6.17628">
        <ele>1623.8535</ele>
        <time>2012-06-03T07:44:57Z</time>
      </trkpt>
      <trkpt lat="45.07642" lon="6.1764">
        <ele>1625.5187</ele>
        <time>2012-06-03T07:45:09Z</time>
      </trkpt>
      <trkpt lat="45.07658" lon="6.17651">
        <ele>1626.64</ele>
        <time>2012-06-03T07:45:20Z</time>
      </trkpt>
      <trkpt lat="45.07675" lon="6.17665">
        <ele>1627.938</ele>
        <time>2012-06-03T07:45:31Z</time>
      </trkpt>
      <trkpt lat="45.07691" lon="6.17678">
        <ele>1628.8214</ele>
        <time>2012-06-03T07:45:41Z</time>
      </trkpt>
      <trkpt lat="45.0771" lon="6.17688">
        <ele>1630.0552</ele>
        <time>2012-06-03T07:45:52Z</time>
      </trkpt>
      <trkpt lat="45.07728" lon="6.17693">
        <ele>1631.6968</ele>
        <time>2012-06-03T07:46:03Z</time>
      </trkpt>
      <trkpt lat="45.07747" lon="6.17696">
        <ele>1633.3143</ele>
        <time>2012-06-03T07:46:15Z</time>
      </trkpt>
      <trkpt lat="45.07765" lon="6.17701">
        <ele>1634.6014</ele>
        <time>2012-06-03T07:46:27Z</time>
      </trkpt>
      <trkpt lat="45.07783" lon="6.17706">
        <ele>1635.6263</ele>
        <time>2012-06-03T07:46:38Z</time>
      </trkpt>
      <trkpt lat="45.07801" lon="6.17713">
        <ele>1637.6566</ele>
        <time>2012-06-03T07:46:50Z</time>
      </trkpt>
      <trkpt lat="45.07819" lon="6.17718">
        <ele>1639.6802</ele>
        <time>2012-06-03T07:47:02Z</time>
      </trkpt>
      <trkpt lat="45.07838" lon="6.17719">
        <ele>1642.4443</ele>
        <time>2012-06-03T07:47:14Z</time>
      </trkpt>
      <trkpt lat="45.07856" lon="6.17716">
        <ele>1645.4288</ele>
        <time>2012-06-03T07:47:26Z</time>
      </trkpt>
      <trkpt lat="45.07876" lon="6.17716">
        <ele>1648.0057</ele>
        <time>2012-06-03T07:47:39Z</time>
      </trkpt>
      <trkpt lat="45.07895" lon="6.17715">
        <ele>1649.7996</ele>
        <time>2012-06-03T07:47:51Z</time>
      </trkpt>
      <trkpt lat="45.07914" lon="6.17711">
        <ele>1652.6786</ele>
        <time>2012-06-03T07:48:04Z</time>
      </trkpt>
      <trkpt lat="45.07932" lon="6.17711">
        <ele>1655.043</ele>
        <time>2012-06-03T07:48:16Z</time>
      </trkpt>
      <trkpt lat="45.07951" lon="6.17721">
        <ele>1656.4384</ele>
        <time>2012-06-03T07:48:27Z</time>
      </trkpt>
      <trkpt lat="45.07938" lon="6.177">
        <ele>1660.1613</ele>
        <time>2012-06-03T07:48:59Z</time>
      </trkpt>
      <trkpt lat="45.07919" lon="6.17694">
        <ele>1660.612</ele>
        <time>2012-06-03T07:49:11Z</time>
      </trkpt>
      <trkpt lat="45.07902" lon="6.17685">
        <ele>1661.044</ele>
        <time>2012-06-03T07:49:22Z</time>
      </trkpt>
      <trkpt lat="45.07884" lon="6.17677">
        <ele>1661.5956</ele>
        <time>2012-06-03T07:49:33Z</time>
      </trkpt>
      <trkpt lat="45.07867" lon="6.17667">
        <ele>1663.8213</ele>
        <time>2012-06-03T07:49:44Z</time>
      </trkpt>
      <trkpt lat="45.0785" lon="6.17657">
        <ele>1665.6831</ele>
        <time>2012-06-03T07:49:55Z</time>
      </trkpt>
      <trkpt lat="45.07834" lon="6.17646">
        <ele>1667.7456</ele>
        <time>2012-06-03T07:50:06Z</time>
      </trkpt>
      <trkpt lat="45.07816" lon="6.17634">
        <ele>1669.434</ele>
        <time>2012-06-03T07:50:18Z</time>
      </trkpt>
      <trkpt lat="45.07799" lon="6.17622">
        <ele>1671.2927</ele>
        <time>2012-06-03T07:50:30Z</time>
      </trkpt>
      <trkpt lat="45.07783" lon="6.1761">
        <ele>1672.3188</ele>
        <time>2012-06-03T07:50:41Z</time>
      </trkpt>
      <trkpt lat="45.07765" lon="6.17599">
        <ele>1673.03</ele>
        <time>2012-06-03T07:50:53Z</time>
      </trkpt>
      <trkpt lat="45.07749" lon="6.17585">
        <ele>1673.5466</ele>
        <time>2012-06-03T07:51:05Z</time>
      </trkpt>
      <trkpt lat="45.07733" lon="6.17569">
        <ele>1673.1227</ele>
        <time>2012-06-03T07:51:17Z</time>
      </trkpt>
      <trkpt lat="45.07717" lon="6.17553">
        <ele>1673.9235</ele>
        <time>2012-06-03T07:51:28Z</time>
      </trkpt>
      <trkpt lat="45.07702" lon="6.17537">
        <ele>1674.563</ele>
        <time>2012-06-03T07:51:39Z</time>
      </trkpt>
      <trkpt lat="45.07686" lon="6.17521">
        <ele>1675.6794</ele>
        <time>2012-06-03T07:51:50Z</time>
      </trkpt>
      <trkpt lat="45.07672" lon="6.17504">
        <ele>1677.6072</ele>
        <time>2012-06-03T07:52:00Z</time>
      </trkpt>
      <trkpt lat="45.07658" lon="6.17484">
        <ele>1679.1963</ele>
        <time>2012-06-03T07:52:11Z</time>
      </trkpt>
      <trkpt lat="45.07647" lon="6.17464">
        <ele>1681.1665</ele>
        <time>2012-06-03T07:52:20Z</time>
      </trkpt>
      <trkpt lat="45.07635" lon="6.17444">
        <ele>1683.1183</ele>
        <time>2012-06-03T07:52:29Z</time>
      </trkpt>
      <trkpt lat="45.07652" lon="6.17456">
        <ele>1683.4075</ele>
        <time>2012-06-03T07:52:51Z</time>
      </trkpt>
      <trkpt lat="45.07664" lon="6.17475">
        <ele>1684.7128</ele>
        <time>2012-06-03T07:53:01Z</time>
      </trkpt>
      <trkpt lat="45.0768" lon="6.17492">
        <ele>1686.2996</ele>
        <time>2012-06-03T07:53:12Z</time>
      </trkpt>
      <trkpt lat="45.07696" lon="6.17505">
        <ele>1686.5664</ele>
        <time>2012-06-03T07:53:24Z</time>
      </trkpt>
      <trkpt lat="45.07713" lon="6.17518">
        <ele>1686.6487</ele>
        <time>2012-06-03T07:53:36Z</time>
      </trkpt>
      <trkpt lat="45.07731" lon="6.17529">
        <ele>1688.6266</ele>
        <time>2012-06-03T07:53:47Z</time>
      </trkpt>
      <trkpt lat="45.07748" lon="6.17537">
        <ele>1689.49</ele>
        <time>2012-06-03T07:53:59Z</time>
      </trkpt>
      <trkpt lat="45.07766" lon="6.17545">
        <ele>1691.6643</ele>
        <time>2012-06-03T07:54:12Z</time>
      </trkpt>
      <trkpt lat="45.07784" lon="6.17551">
        <ele>1692.7394</ele>
        <time>2012-06-03T07:54:24Z</time>
      </trkpt>
      <trkpt lat="45.07803" lon="6.17554">
        <ele>1694.4515</ele>
        <time>2012-06-03T07:54:37Z</time>
      </trkpt>
      <trkpt lat="45.07822" lon="6.17559">
        <ele>1698.319</ele>
        <time>2012-06-03T07:54:50Z</time>
      </trkpt>
      <trkpt lat="45.0784" lon="6.17564">
        <ele>1702.6868</ele>
        <time>2012-06-03T07:55:04Z</time>
      </trkpt>
      <trkpt lat="45.07859" lon="6.17568">
        <ele>1706.9858</ele>
        <time>2012-06-03T07:55:17Z</time>
      </trkpt>
      <trkpt lat="45.07878" lon="6.17567">
        <ele>1706.667</ele>
        <time>2012-06-03T07:55:29Z</time>
      </trkpt>
      <trkpt lat="45.07896" lon="6.17565">
        <ele>1705.7301</ele>
        <time>2012-06-03T07:55:43Z</time>
      </trkpt>
      <trkpt lat="45.07914" lon="6.17566">
        <ele>1706.4335</ele>
        <time>2012-06-03T07:55:57Z</time>
      </trkpt>
      <trkpt lat="45.07933" lon="6.17565">
        <ele>1708.6548</ele>
        <time>2012-06-03T07:56:10Z</time>
      </trkpt>
      <trkpt lat="45.07952" lon="6.17566">
        <ele>1711.8145</ele>
        <time>2012-06-03T07:56:21Z</time>
      </trkpt>
      <trkpt lat="45.07971" lon="6.1756">
        <ele>1714.3694</ele>
        <time>2012-06-03T07:56:36Z</time>
      </trkpt>
      <trkpt lat="45.0799" lon="6.17559">
        <ele>1716.7615</ele>
        <time>2012-06-03T07:56:49Z</time>
      </trkpt>
      <trkpt lat="45.08009" lon="6.17568">
        <ele>1718.4486</ele>
        <time>2012-06-03T07:57:02Z</time>
      </trkpt>
      <trkpt lat="45.08027" lon="6.17575">
        <ele>1720.2434</ele>
        <time>2012-06-03T07:57:16Z</time>
      </trkpt>
      <trkpt lat="45.08046" lon="6.17577">
        <ele>1721.4575</ele>
        <time>2012-06-03T07:57:30Z</time>
      </trkpt>
      <trkpt lat="45.08065" lon="6.1758">
        <ele>1724.2902</ele>
        <time>2012-06-03T07:57:45Z</time>
      </trkpt>
      <trkpt lat="45.08084" lon="6.17579">
        <ele>1726.7192</ele>
        <time>2012-06-03T07:57:58Z</time>
      </trkpt>
      <trkpt lat="45.08068" lon="6.17565">
        <ele>1731.425</ele>
        <time>2012-06-03T08:04:04Z</time>
      </trkpt>
      <trkpt lat="45.08049" lon="6.17556">
        <ele>1732.3843</ele>
        <time>2012-06-03T08:04:13Z</time>
      </trkpt>
      <trkpt lat="45.08031" lon="6.17546">
        <ele>1732.9622</ele>
        <time>2012-06-03T08:04:23Z</time>
      </trkpt>
      <trkpt lat="45.08014" lon="6.17532">
        <ele>1734.857</ele>
        <time>2012-06-03T08:04:33Z</time>
      </trkpt>
      <trkpt lat="45.08" lon="6.17514">
        <ele>1739.2007</ele>
        <time>2012-06-03T08:04:43Z</time>
      </trkpt>
      <trkpt lat="45.07986" lon="6.17497">
        <ele>1741.1927</ele>
        <time>2012-06-03T08:04:55Z</time>
      </trkpt>
      <trkpt lat="45.07967" lon="6.175">
        <ele>1742.6208</ele>
        <time>2012-06-03T08:05:04Z</time>
      </trkpt>
      <trkpt lat="45.0795" lon="6.17488">
        <ele>1743.6965</ele>
        <time>2012-06-03T08:05:13Z</time>
      </trkpt>
      <trkpt lat="45.07932" lon="6.17477">
        <ele>1745.6909</ele>
        <time>2012-06-03T08:05:24Z</time>
      </trkpt>
      <trkpt lat="45.07912" lon="6.1748">
        <ele>1747.0349</ele>
        <time>2012-06-03T08:05:35Z</time>
      </trkpt>
      <trkpt lat="45.07895" lon="6.17469">
        <ele>1748.1545</ele>
        <time>2012-06-03T08:05:47Z</time>
      </trkpt>
      <trkpt lat="45.07876" lon="6.17469">
        <ele>1749.2787</ele>
        <time>2012-06-03T08:05:59Z</time>
      </trkpt>
      <trkpt lat="45.07858" lon="6.1746">
        <ele>1749.4941</ele>
        <time>2012-06-03T08:06:11Z</time>
      </trkpt>
      <trkpt lat="45.07842" lon="6.17447">
        <ele>1749.9854</ele>
        <time>2012-06-03T08:06:22Z</time>
      </trkpt>
      <trkpt lat="45.07827" lon="6.17431">
        <ele>1751.9598</ele>
        <time>2012-06-03T08:06:33Z</time>
      </trkpt>
      <trkpt lat="45.07813" lon="6.17415">
        <ele>1752.9742</ele>
        <time>2012-06-03T08:06:45Z</time>
      </trkpt>
      <trkpt lat="45.07801" lon="6.17395">
        <ele>1754.3286</ele>
        <time>2012-06-03T08:06:57Z</time>
      </trkpt>
      <trkpt lat="45.0779" lon="6.17373">
        <ele>1756.0896</ele>
        <time>2012-06-03T08:07:09Z</time>
      </trkpt>
      <trkpt lat="45.07779" lon="6.1735">
        <ele>1757.9844</ele>
        <time>2012-06-03T08:07:21Z</time>
      </trkpt>
      <trkpt lat="45.0777" lon="6.17328">
        <ele>1759.8843</ele>
        <time>2012-06-03T08:07:32Z</time>
      </trkpt>
      <trkpt lat="45.0776" lon="6.17307">
        <ele>1761.3386</ele>
        <time>2012-06-03T08:07:43Z</time>
      </trkpt>
      <trkpt lat="45.07751" lon="6.17283">
        <ele>1762.9156</ele>
        <time>2012-06-03T08:07:55Z</time>
      </trkpt>
      <trkpt lat="45.07744" lon="6.17258">
        <ele>1764.043</ele>
        <time>2012-06-03T08:08:07Z</time>
      </trkpt>
      <trkpt lat="45.07748" lon="6.17232">
        <ele>1765.7765</ele>
        <time>2012-06-03T08:08:19Z</time>
      </trkpt>
      <trkpt lat="45.0775" lon="6.17205">
        <ele>1767.3809</ele>
        <time>2012-06-03T08:08:32Z</time>
      </trkpt>
      <trkpt lat="45.07745" lon="6.1718">
        <ele>1769.1376</ele>
        <time>2012-06-03T08:08:44Z</time>
      </trkpt>
      <trkpt lat="45.07738" lon="6.17154">
        <ele>1770.9163</ele>
        <time>2012-06-03T08:08:56Z</time>
      </trkpt>
      <trkpt lat="45.07731" lon="6.1713">
        <ele>1772.2028</ele>
        <time>2012-06-03T08:09:07Z</time>
      </trkpt>
      <trkpt lat="45.07724" lon="6.17106">
        <ele>1773.2953</ele>
        <time>2012-06-03T08:09:18Z</time>
      </trkpt>
      <trkpt lat="45.07741" lon="6.17119">
        <ele>1774.9609</ele>
        <time>2012-06-03T08:09:44Z</time>
      </trkpt>
      <trkpt lat="45.07751" lon="6.1714">
        <ele>1775.7578</ele>
        <time>2012-06-03T08:09:55Z</time>
      </trkpt>
      <trkpt lat="45.07763" lon="6.17161">
        <ele>1777.0602</ele>
        <time>2012-06-03T08:10:06Z</time>
      </trkpt>
      <trkpt lat="45.07775" lon="6.1718">
        <ele>1778.3464</ele>
        <time>2012-06-03T08:10:16Z</time>
      </trkpt>
      <trkpt lat="45.07787" lon="6.17201">
        <ele>1779.7957</ele>
        <time>2012-06-03T08:10:26Z</time>
      </trkpt>
      <trkpt lat="45.07793" lon="6.17226">
        <ele>1780.9513</ele>
        <time>2012-06-03T08:10:36Z</time>
      </trkpt>
      <trkpt lat="45.07795" lon="6.17252">
        <ele>1782.1743</ele>
        <time>2012-06-03T08:10:47Z</time>
      </trkpt>
      <trkpt lat="45.07804" lon="6.17276">
        <ele>1783.7507</ele>
        <time>2012-06-03T08:10:58Z</time>
      </trkpt>
      <trkpt lat="45.07818" lon="6.17292">
        <ele>1785.9381</ele>
        <time>2012-06-03T08:11:09Z</time>
      </trkpt>
      <trkpt lat="45.07833" lon="6.17308">
        <ele>1788.3351</ele>
        <time>2012-06-03T08:11:22Z</time>
      </trkpt>
      <trkpt lat="45.07849" lon="6.17322">
        <ele>1790.3171</ele>
        <time>2012-06-03T08:11:34Z</time>
      </trkpt>
      <trkpt lat="45.07866" lon="6.17335">
        <ele>1792.2163</ele>
        <time>2012-06-03T08:11:46Z</time>
      </trkpt>
      <trkpt lat="45.07883" lon="6.17344">
        <ele>1793.6924</ele>
        <time>2012-06-03T08:11:57Z</time>
      </trkpt>
      <trkpt lat="45.07902" lon="6.17347">
        <ele>1795.02</ele>
        <time>2012-06-03T08:12:08Z</time>
      </trkpt>
      <trkpt lat="45.0792" lon="6.17349">
        <ele>1796.535</ele>
        <time>2012-06-03T08:12:19Z</time>
      </trkpt>
      <trkpt lat="45.07939" lon="6.1735">
        <ele>1798.9325</ele>
        <time>2012-06-03T08:12:31Z</time>
      </trkpt>
      <trkpt lat="45.07958" lon="6.17353">
        <ele>1800.6932</ele>
        <time>2012-06-03T08:12:43Z</time>
      </trkpt>
      <trkpt lat="45.07976" lon="6.17357">
        <ele>1802.6136</ele>
        <time>2012-06-03T08:12:55Z</time>
      </trkpt>
      <trkpt lat="45.07995" lon="6.17361">
        <ele>1804.4403</ele>
        <time>2012-06-03T08:13:07Z</time>
      </trkpt>
      <trkpt lat="45.08014" lon="6.17363">
        <ele>1806.3191</ele>
        <time>2012-06-03T08:13:19Z</time>
      </trkpt>
      <trkpt lat="45.08032" lon="6.17365">
        <ele>1808.1432</ele>
        <time>2012-06-03T08:13:30Z</time>
      </trkpt>
      <trkpt lat="45.08051" lon="6.17366">
        <ele>1809.5612</ele>
        <time>2012-06-03T08:13:41Z</time>
      </trkpt>
      <trkpt lat="45.08069" lon="6.17368">
        <ele>1810.8391</ele>
        <time>2012-06-03T08:13:52Z</time>
      </trkpt>
      <trkpt lat="45.08087" lon="6.17368">
        <ele>1812.2802</ele>
        <time>2012-06-03T08:14:03Z</time>
      </trkpt>
      <trkpt lat="45.08072" lon="6.17353">
        <ele>1815.4935</ele>
        <time>2012-06-03T08:14:17Z</time>
      </trkpt>
      <trkpt lat="45.08053" lon="6.17348">
        <ele>1817.9789</ele>
        <time>2012-06-03T08:14:28Z</time>
      </trkpt>
      <trkpt lat="45.08036" lon="6.17339">
        <ele>1820.3071</ele>
        <time>2012-06-03T08:14:39Z</time>
      </trkpt>
      <trkpt lat="45.08017" lon="6.17329">
        <ele>1822.4734</ele>
        <time>2012-06-03T08:14:50Z</time>
      </trkpt>
      <trkpt lat="45.08" lon="6.17318">
        <ele>1824.1614</ele>
        <time>2012-06-03T08:15:00Z</time>
      </trkpt>
      <trkpt lat="45.07984" lon="6.17306">
        <ele>1825.9539</ele>
        <time>2012-06-03T08:15:09Z</time>
      </trkpt>
      <trkpt lat="45.07968" lon="6.1729">
        <ele>1827.7539</ele>
        <time>2012-06-03T08:15:19Z</time>
      </trkpt>
      <trkpt lat="45.07953" lon="6.17275">
        <ele>1829.2042</ele>
        <time>2012-06-03T08:15:29Z</time>
      </trkpt>
      <trkpt lat="45.07939" lon="6.17256">
        <ele>1830.8966</ele>
        <time>2012-06-03T08:15:40Z</time>
      </trkpt>
      <trkpt lat="45.07928" lon="6.17234">
        <ele>1832.0553</ele>
        <time>2012-06-03T08:15:51Z</time>
      </trkpt>
      <trkpt lat="45.0792" lon="6.1721">
        <ele>1833.5701</ele>
        <time>2012-06-03T08:16:02Z</time>
      </trkpt>
      <trkpt lat="45.07912" lon="6.17186">
        <ele>1835.1455</ele>
        <time>2012-06-03T08:16:13Z</time>
      </trkpt>
      <trkpt lat="45.07904" lon="6.17162">
        <ele>1837.1495</ele>
        <time>2012-06-03T08:16:24Z</time>
      </trkpt>
      <trkpt lat="45.07897" lon="6.17138">
        <ele>1838.7336</ele>
        <time>2012-06-03T08:16:34Z</time>
      </trkpt>
      <trkpt lat="45.07888" lon="6.17114">
        <ele>1839.5801</ele>
        <time>2012-06-03T08:16:45Z</time>
      </trkpt>
      <trkpt lat="45.07878" lon="6.17092">
        <ele>1841.447</ele>
        <time>2012-06-03T08:16:57Z</time>
      </trkpt>
      <trkpt lat="45.07896" lon="6.17098">
        <ele>1843.2357</ele>
        <time>2012-06-03T08:17:22Z</time>
      </trkpt>
      <trkpt lat="45.07909" lon="6.17117">
        <ele>1843.5193</ele>
        <time>2012-06-03T08:17:33Z</time>
      </trkpt>
      <trkpt lat="45.07923" lon="6.17135">
        <ele>1845.1095</ele>
        <time>2012-06-03T08:17:45Z</time>
      </trkpt>
      <trkpt lat="45.07939" lon="6.17151">
        <ele>1847.0045</ele>
        <time>2012-06-03T08:17:57Z</time>
      </trkpt>
      <trkpt lat="45.07955" lon="6.17166">
        <ele>1848.9841</ele>
        <time>2012-06-03T08:18:09Z</time>
      </trkpt>
      <trkpt lat="45.07971" lon="6.17179">
        <ele>1850.6078</ele>
        <time>2012-06-03T08:18:20Z</time>
      </trkpt>
      <trkpt lat="45.07987" lon="6.1719">
        <ele>1852.2737</ele>
        <time>2012-06-03T08:18:31Z</time>
      </trkpt>
      <trkpt lat="45.08004" lon="6.172">
        <ele>1853.9335</ele>
        <time>2012-06-03T08:18:42Z</time>
      </trkpt>
      <trkpt lat="45.08022" lon="6.1721">
        <ele>1855.2529</ele>
        <time>2012-06-03T08:18:54Z</time>
      </trkpt>
      <trkpt lat="45.08039" lon="6.17218">
        <ele>1856.506</ele>
        <time>2012-06-03T08:19:05Z</time>
      </trkpt>
      <trkpt lat="45.08056" lon="6.17227">
        <ele>1858.2584</ele>
        <time>2012-06-03T08:19:16Z</time>
      </trkpt>
      <trkpt lat="45.08074" lon="6.17236">
        <ele>1859.5883</ele>
        <time>2012-06-03T08:19:27Z</time>
      </trkpt>
      <trkpt lat="45.08092" lon="6.17245">
        <ele>1861.2601</ele>
        <time>2012-06-03T08:19:38Z</time>
      </trkpt>
      <trkpt lat="45.0811" lon="6.17253">
        <ele>1862.8553</ele>
        <time>2012-06-03T08:19:49Z</time>
      </trkpt>
      <trkpt lat="45.08128" lon="6.17259">
        <ele>1864.6234</ele>
        <time>2012-06-03T08:20:00Z</time>
      </trkpt>
      <trkpt lat="45.08146" lon="6.17263">
        <ele>1866.3593</ele>
        <time>2012-06-03T08:20:11Z</time>
      </trkpt>
      <trkpt lat="45.08165" lon="6.17264">
        <ele>1868.5658</ele>
        <time>2012-06-03T08:20:23Z</time>
      </trkpt>
      <trkpt lat="45.08183" lon="6.17266">
        <ele>1870.5109</ele>
        <time>2012-06-03T08:20:35Z</time>
      </trkpt>
      <trkpt lat="45.082" lon="6.1728">
        <ele>1872.2115</ele>
        <time>2012-06-03T08:20:47Z</time>
      </trkpt>
      <trkpt lat="45.08216" lon="6.17292">
        <ele>1874.1119</ele>
        <time>2012-06-03T08:20:58Z</time>
      </trkpt>
      <trkpt lat="45.08233" lon="6.17303">
        <ele>1875.9056</ele>
        <time>2012-06-03T08:21:09Z</time>
      </trkpt>
      <trkpt lat="45.0825" lon="6.17313">
        <ele>1877.4965</ele>
        <time>2012-06-03T08:21:20Z</time>
      </trkpt>
      <trkpt lat="45.08267" lon="6.17324">
        <ele>1879.1337</ele>
        <time>2012-06-03T08:21:32Z</time>
      </trkpt>
      <trkpt lat="45.08285" lon="6.17336">
        <ele>1881.0444</ele>
        <time>2012-06-03T08:21:44Z</time>
      </trkpt>
      <trkpt lat="45.08302" lon="6.17348">
        <ele>1883.0331</ele>
        <time>2012-06-03T08:21:56Z</time>
      </trkpt>
      <trkpt lat="45.0832" lon="6.1736">
        <ele>1885.5106</ele>
        <time>2012-06-03T08:22:08Z</time>
      </trkpt>
      <trkpt lat="45.08336" lon="6.17371">
        <ele>1887.8091</ele>
        <time>2012-06-03T08:22:19Z</time>
      </trkpt>
      <trkpt lat="45.08353" lon="6.17382">
        <ele>1888.7994</ele>
        <time>2012-06-03T08:22:30Z</time>
      </trkpt>
      <trkpt lat="45.08368" lon="6.17399">
        <ele>1890.3699</ele>
        <time>2012-06-03T08:22:42Z</time>
      </trkpt>
      <trkpt lat="45.08383" lon="6.17414">
        <ele>1892.0865</ele>
        <time>2012-06-03T08:22:53Z</time>
      </trkpt>
      <trkpt lat="45.08399" lon="6.17426">
        <ele>1893.9637</ele>
        <time>2012-06-03T08:23:04Z</time>
      </trkpt>
      <trkpt lat="45.08417" lon="6.17435">
        <ele>1895.7703</ele>
        <time>2012-06-03T08:23:15Z</time>
      </trkpt>
      <trkpt lat="45.08434" lon="6.17447">
        <ele>1896.9615</ele>
        <time>2012-06-03T08:23:26Z</time>
      </trkpt>
      <trkpt lat="45.08449" lon="6.17463">
        <ele>1898.2593</ele>
        <time>2012-06-03T08:23:37Z</time>
      </trkpt>
      <trkpt lat="45.08466" lon="6.17477">
        <ele>1899.4052</ele>
        <time>2012-06-03T08:23:47Z</time>
      </trkpt>
      <trkpt lat="45.08482" lon="6.17489">
        <ele>1900.952</ele>
        <time>2012-06-03T08:23:56Z</time>
      </trkpt>
      <trkpt lat="45.08497" lon="6.17505">
        <ele>1902.4341</ele>
        <time>2012-06-03T08:24:06Z</time>
      </trkpt>
      <trkpt lat="45.08513" lon="6.1752">
        <ele>1904.8242</ele>
        <time>2012-06-03T08:24:17Z</time>
      </trkpt>
      <trkpt lat="45.08529" lon="6.17534">
        <ele>1906.7944</ele>
        <time>2012-06-03T08:24:27Z</time>
      </trkpt>
      <trkpt lat="45.08547" lon="6.17547">
        <ele>1908.9252</ele>
        <time>2012-06-03T08:24:38Z</time>
      </trkpt>
      <trkpt lat="45.08563" lon="6.17559">
        <ele>1910.8973</ele>
        <time>2012-06-03T08:24:49Z</time>
      </trkpt>
      <trkpt lat="45.0858" lon="6.17573">
        <ele>1912.8418</ele>
        <time>2012-06-03T08:25:00Z</time>
      </trkpt>
      <trkpt lat="45.08592" lon="6.17594">
        <ele>1914.9027</ele>
        <time>2012-06-03T08:25:11Z</time>
      </trkpt>
      <trkpt lat="45.08602" lon="6.17616">
        <ele>1917.5258</ele>
        <time>2012-06-03T08:25:22Z</time>
      </trkpt>
      <trkpt lat="45.08614" lon="6.17638">
        <ele>1919.0785</ele>
        <time>2012-06-03T08:25:33Z</time>
      </trkpt>
      <trkpt lat="45.08626" lon="6.17658">
        <ele>1921.2655</ele>
        <time>2012-06-03T08:25:45Z</time>
      </trkpt>
      <trkpt lat="45.08627" lon="6.17632">
        <ele>1923.9381</ele>
        <time>2012-06-03T08:25:59Z</time>
      </trkpt>
      <trkpt lat="45.08616" lon="6.17609">
        <ele>1925.7152</ele>
        <time>2012-06-03T08:26:08Z</time>
      </trkpt>
      <trkpt lat="45.08609" lon="6.17583">
        <ele>1927.2733</ele>
        <time>2012-06-03T08:26:17Z</time>
      </trkpt>
      <trkpt lat="45.08601" lon="6.17559">
        <ele>1928.5787</ele>
        <time>2012-06-03T08:26:26Z</time>
      </trkpt>
      <trkpt lat="45.0859" lon="6.17536">
        <ele>1930.4392</ele>
        <time>2012-06-03T08:26:36Z</time>
      </trkpt>
      <trkpt lat="45.08578" lon="6.17517">
        <ele>1932.1597</ele>
        <time>2012-06-03T08:26:46Z</time>
      </trkpt>
      <trkpt lat="45.08566" lon="6.17497">
        <ele>1933.9845</ele>
        <time>2012-06-03T08:26:56Z</time>
      </trkpt>
      <trkpt lat="45.08553" lon="6.17478">
        <ele>1936.4504</ele>
        <time>2012-06-03T08:27:07Z</time>
      </trkpt>
      <trkpt lat="45.08539" lon="6.17462">
        <ele>1938.8738</ele>
        <time>2012-06-03T08:27:18Z</time>
      </trkpt>
      <trkpt lat="45.08557" lon="6.17459">
        <ele>1939.404</ele>
        <time>2012-06-03T08:27:41Z</time>
      </trkpt>
      <trkpt lat="45.08574" lon="6.17473">
        <ele>1939.7655</ele>
        <time>2012-06-03T08:27:51Z</time>
      </trkpt>
      <trkpt lat="45.08591" lon="6.17484">
        <ele>1940.438</ele>
        <time>2012-06-03T08:28:01Z</time>
      </trkpt>
      <trkpt lat="45.08608" lon="6.17496">
        <ele>1941.6656</ele>
        <time>2012-06-03T08:28:11Z</time>
      </trkpt>
      <trkpt lat="45.08624" lon="6.17509">
        <ele>1943.0228</ele>
        <time>2012-06-03T08:28:22Z</time>
      </trkpt>
      <trkpt lat="45.08641" lon="6.17517">
        <ele>1945.0839</ele>
        <time>2012-06-03T08:28:34Z</time>
      </trkpt>
      <trkpt lat="45.08659" lon="6.1752">
        <ele>1948.3182</ele>
        <time>2012-06-03T08:28:47Z</time>
      </trkpt>
      <trkpt lat="45.08677" lon="6.17514">
        <ele>1952.2561</ele>
        <time>2012-06-03T08:29:01Z</time>
      </trkpt>
      <trkpt lat="45.08695" lon="6.1751">
        <ele>1956.4269</ele>
        <time>2012-06-03T08:29:16Z</time>
      </trkpt>
      <trkpt lat="45.08711" lon="6.17522">
        <ele>1958.0236</ele>
        <time>2012-06-03T08:40:28Z</time>
      </trkpt>
      <trkpt lat="45.08727" lon="6.17539">
        <ele>1957.46</ele>
        <time>2012-06-03T08:40:36Z</time>
      </trkpt>
      <trkpt lat="45.08745" lon="6.17553">
        <ele>1956.9396</ele>
        <time>2012-06-03T08:40:42Z</time>
      </trkpt>
      <trkpt lat="45.08764" lon="6.17567">
        <ele>1956.0327</ele>
        <time>2012-06-03T08:40:46Z</time>
      </trkpt>
      <trkpt lat="45.0878" lon="6.17584">
        <ele>1954.8219</ele>
        <time>2012-06-03T08:40:49Z</time>
      </trkpt>
      <trkpt lat="45.08795" lon="6.17599">
        <ele>1953.6766</ele>
        <time>2012-06-03T08:40:52Z</time>
      </trkpt>
      <trkpt lat="45.08813" lon="6.17612">
        <ele>1952.5388</ele>
        <time>2012-06-03T08:40:55Z</time>
      </trkpt>
      <trkpt lat="45.08833" lon="6.17623">
        <ele>1951.4088</ele>
        <time>2012-06-03T08:40:58Z</time>
      </trkpt>
      <trkpt lat="45.08854" lon="6.17632">
        <ele>1950.4806</ele>
        <time>2012-06-03T08:41:01Z</time>
      </trkpt>
      <trkpt lat="45.08876" lon="6.17636">
        <ele>1949.6373</ele>
        <time>2012-06-03T08:41:04Z</time>
      </trkpt>
      <trkpt lat="45.08912" lon="6.17641">
        <ele>1949.4382</ele>
        <time>2012-06-03T08:41:05Z</time>
      </trkpt>
      <trkpt lat="45.08933" lon="6.17646">
        <ele>1948.6117</ele>
        <time>2012-06-03T08:41:08Z</time>
      </trkpt>
      <trkpt lat="45.08953" lon="6.17655">
        <ele>1948.7496</ele>
        <time>2012-06-03T08:41:12Z</time>
      </trkpt>
      <trkpt lat="45.08967" lon="6.17638">
        <ele>1949.798</ele>
        <time>2012-06-03T08:41:17Z</time>
      </trkpt>
      <trkpt lat="45.08983" lon="6.17614">
        <ele>1949.2509</ele>
        <time>2012-06-03T08:41:21Z</time>
      </trkpt>
      <trkpt lat="45.09" lon="6.17599">
        <ele>1947.5077</ele>
        <time>2012-06-03T08:41:24Z</time>
      </trkpt>
      <trkpt lat="45.09019" lon="6.17593">
        <ele>1945.8597</ele>
        <time>2012-06-03T08:41:27Z</time>
      </trkpt>
      <trkpt lat="45.09043" lon="6.17594">
        <ele>1943.6438</ele>
        <time>2012-06-03T08:41:31Z</time>
      </trkpt>
      <trkpt lat="45.09063" lon="6.17598">
        <ele>1941.9</ele>
        <time>2012-06-03T08:41:34Z</time>
      </trkpt>
      <trkpt lat="45.09085" lon="6.17606">
        <ele>1940.1237</ele>
        <time>2012-06-03T08:41:37Z</time>
      </trkpt>
      <trkpt lat="45.09108" lon="6.17616">
        <ele>1938.6447</ele>
        <time>2012-06-03T08:41:40Z</time>
      </trkpt>
      <trkpt lat="45.09132" lon="6.17628">
        <ele>1936.9926</ele>
        <time>2012-06-03T08:41:43Z</time>
      </trkpt>
      <trkpt lat="45.09155" lon="6.17643">
        <ele>1934.7096</ele>
        <time>2012-06-03T08:41:46Z</time>
      </trkpt>
      <trkpt lat="45.09177" lon="6.17659">
        <ele>1933.0575</ele>
        <time>2012-06-03T08:41:49Z</time>
      </trkpt>
      <trkpt lat="45.09199" lon="6.17674">
        <ele>1931.9417</ele>
        <time>2012-06-03T08:41:52Z</time>
      </trkpt>
      <trkpt lat="45.0922" lon="6.17689">
        <ele>1931.1678</ele>
        <time>2012-06-03T08:41:55Z</time>
      </trkpt>
      <trkpt lat="45.09242" lon="6.17704">
        <ele>1930.357</ele>
        <time>2012-06-03T08:41:58Z</time>
      </trkpt>
      <trkpt lat="45.09266" lon="6.17718">
        <ele>1929.3025</ele>
        <time>2012-06-03T08:42:01Z</time>
      </trkpt>
      <trkpt lat="45.09289" lon="6.17733">
        <ele>1928.2295</ele>
        <time>2012-06-03T08:42:04Z</time>
      </trkpt>
      <trkpt lat="45.09313" lon="6.17748">
        <ele>1927.119</ele>
        <time>2012-06-03T08:42:07Z</time>
      </trkpt>
      <trkpt lat="45.09337" lon="6.17764">
        <ele>1926.0801</ele>
        <time>2012-06-03T08:42:10Z</time>
      </trkpt>
      <trkpt lat="45.09361" lon="6.17781">
        <ele>1925.0637</ele>
        <time>2012-06-03T08:42:13Z</time>
      </trkpt>
      <trkpt lat="45.09382" lon="6.17796">
        <ele>1924.4475</ele>
        <time>2012-06-03T08:42:16Z</time>
      </trkpt>
      <trkpt lat="45.09403" lon="6.17809">
        <ele>1923.75</ele>
        <time>2012-06-03T08:42:19Z</time>
      </trkpt>
      <trkpt lat="45.09424" lon="6.17825">
        <ele>1922.7714</ele>
        <time>2012-06-03T08:42:22Z</time>
      </trkpt>
      <trkpt lat="45.09442" lon="6.17844">
        <ele>1921.6366</ele>
        <time>2012-06-03T08:42:25Z</time>
      </trkpt>
      <trkpt lat="45.09457" lon="6.17864">
        <ele>1920.6736</ele>
        <time>2012-06-03T08:42:28Z</time>
      </trkpt>
      <trkpt lat="45.09472" lon="6.17879">
        <ele>1920.1578</ele>
        <time>2012-06-03T08:42:31Z</time>
      </trkpt>
      <trkpt lat="45.09487" lon="6.17895">
        <ele>1919.8918</ele>
        <time>2012-06-03T08:42:34Z</time>
      </trkpt>
      <trkpt lat="45.09502" lon="6.17918">
        <ele>1919.5801</ele>
        <time>2012-06-03T08:42:38Z</time>
      </trkpt>
      <trkpt lat="45.0951" lon="6.17941">
        <ele>1919.1154</ele>
        <time>2012-06-03T08:42:43Z</time>
      </trkpt>
      <trkpt lat="45.09531" lon="6.17948">
        <ele>1918.4584</ele>
        <time>2012-06-03T08:42:49Z</time>
      </trkpt>
      <trkpt lat="45.09549" lon="6.17962">
        <ele>1917.5594</ele>
        <time>2012-06-03T08:42:53Z</time>
      </trkpt>
      <trkpt lat="45.09563" lon="6.17976">
        <ele>1916.8612</ele>
        <time>2012-06-03T08:42:56Z</time>
      </trkpt>
      <trkpt lat="45.09579" lon="6.1799">
        <ele>1916.0402</ele>
        <time>2012-06-03T08:42:59Z</time>
      </trkpt>
      <trkpt lat="45.09592" lon="6.18009">
        <ele>1914.8661</ele>
        <time>2012-06-03T08:43:03Z</time>
      </trkpt>
      <trkpt lat="45.09611" lon="6.18013">
        <ele>1913.7452</ele>
        <time>2012-06-03T08:43:08Z</time>
      </trkpt>
      <trkpt lat="45.09631" lon="6.18024">
        <ele>1912.8103</ele>
        <time>2012-06-03T08:43:12Z</time>
      </trkpt>
      <trkpt lat="45.09645" lon="6.18044">
        <ele>1912.0836</ele>
        <time>2012-06-03T08:43:16Z</time>
      </trkpt>
      <trkpt lat="45.09667" lon="6.1805">
        <ele>1910.7207</ele>
        <time>2012-06-03T08:43:22Z</time>
      </trkpt>
      <trkpt lat="45.09689" lon="6.18057">
        <ele>1909.6713</ele>
        <time>2012-06-03T08:43:26Z</time>
      </trkpt>
      <trkpt lat="45.09709" lon="6.18073">
        <ele>1908.7139</ele>
        <time>2012-06-03T08:43:30Z</time>
      </trkpt>
      <trkpt lat="45.09727" lon="6.18085">
        <ele>1907.82</ele>
        <time>2012-06-03T08:43:34Z</time>
      </trkpt>
      <trkpt lat="45.09747" lon="6.18087">
        <ele>1906.7711</ele>
        <time>2012-06-03T08:43:38Z</time>
      </trkpt>
      <trkpt lat="45.09768" lon="6.181">
        <ele>1905.5364</ele>
        <time>2012-06-03T08:43:42Z</time>
      </trkpt>
      <trkpt lat="45.09783" lon="6.18123">
        <ele>1904.574</ele>
        <time>2012-06-03T08:43:46Z</time>
      </trkpt>
      <trkpt lat="45.09791" lon="6.18146">
        <ele>1903.9756</ele>
        <time>2012-06-03T08:43:51Z</time>
      </trkpt>
      <trkpt lat="45.0981" lon="6.18148">
        <ele>1902.8333</ele>
        <time>2012-06-03T08:43:59Z</time>
      </trkpt>
      <trkpt lat="45.0983" lon="6.18148">
        <ele>1901.7612</ele>
        <time>2012-06-03T08:44:03Z</time>
      </trkpt>
      <trkpt lat="45.09844" lon="6.18169">
        <ele>1900.9369</ele>
        <time>2012-06-03T08:44:07Z</time>
      </trkpt>
      <trkpt lat="45.09864" lon="6.18171">
        <ele>1899.6033</ele>
        <time>2012-06-03T08:44:12Z</time>
      </trkpt>
      <trkpt lat="45.09884" lon="6.1817">
        <ele>1898.9412</ele>
        <time>2012-06-03T08:44:16Z</time>
      </trkpt>
      <trkpt lat="45.09906" lon="6.18178">
        <ele>1898.4398</ele>
        <time>2012-06-03T08:44:20Z</time>
      </trkpt>
      <trkpt lat="45.09929" lon="6.1818">
        <ele>1898.0259</ele>
        <time>2012-06-03T08:44:24Z</time>
      </trkpt>
      <trkpt lat="45.09949" lon="6.18187">
        <ele>1897.258</ele>
        <time>2012-06-03T08:44:27Z</time>
      </trkpt>
      <trkpt lat="45.09966" lon="6.182">
        <ele>1896.0682</ele>
        <time>2012-06-03T08:44:31Z</time>
      </trkpt>
      <trkpt lat="45.09986" lon="6.18197">
        <ele>1895.1074</ele>
        <time>2012-06-03T08:44:37Z</time>
      </trkpt>
      <trkpt lat="45.10005" lon="6.18201">
        <ele>1894.6726</ele>
        <time>2012-06-03T08:44:41Z</time>
      </trkpt>
      <trkpt lat="45.10025" lon="6.18206">
        <ele>1894.0123</ele>
        <time>2012-06-03T08:44:45Z</time>
      </trkpt>
      <trkpt lat="45.10047" lon="6.18213">
        <ele>1893.2429</ele>
        <time>2012-06-03T08:44:49Z</time>
      </trkpt>
      <trkpt lat="45.10068" lon="6.18221">
        <ele>1892.7487</ele>
        <time>2012-06-03T08:44:53Z</time>
      </trkpt>
      <trkpt lat="45.10087" lon="6.18229">
        <ele>1892.3434</ele>
        <time>2012-06-03T08:44:57Z</time>
      </trkpt>
      <trkpt lat="45.10106" lon="6.18236">
        <ele>1891.8652</ele>
        <time>2012-06-03T08:45:01Z</time>
      </trkpt>
      <trkpt lat="45.10125" lon="6.18243">
        <ele>1891.4486</ele>
        <time>2012-06-03T08:45:05Z</time>
      </trkpt>
      <trkpt lat="45.10145" lon="6.18248">
        <ele>1891.2633</ele>
        <time>2012-06-03T08:45:09Z</time>
      </trkpt>
      <trkpt lat="45.10163" lon="6.18255">
        <ele>1891.2086</ele>
        <time>2012-06-03T08:45:13Z</time>
      </trkpt>
      <trkpt lat="45.10178" lon="6.18275">
        <ele>1891.1465</ele>
        <time>2012-06-03T08:45:18Z</time>
      </trkpt>
      <trkpt lat="45.10178" lon="6.18303">
        <ele>1891.3373</ele>
        <time>2012-06-03T08:45:23Z</time>
      </trkpt>
      <trkpt lat="45.10194" lon="6.18288">
        <ele>1890.3021</ele>
        <time>2012-06-03T08:45:35Z</time>
      </trkpt>
      <trkpt lat="45.10209" lon="6.18271">
        <ele>1888.7601</ele>
        <time>2012-06-03T08:45:42Z</time>
      </trkpt>
      <trkpt lat="45.10226" lon="6.18253">
        <ele>1888.0176</ele>
        <time>2012-06-03T08:45:48Z</time>
      </trkpt>
      <trkpt lat="45.10243" lon="6.18242">
        <ele>1887.4579</ele>
        <time>2012-06-03T08:45:52Z</time>
      </trkpt>
      <trkpt lat="45.1026" lon="6.18232">
        <ele>1887.2725</ele>
        <time>2012-06-03T08:45:56Z</time>
      </trkpt>
      <trkpt lat="45.10271" lon="6.18211">
        <ele>1887.6354</ele>
        <time>2012-06-03T08:46:02Z</time>
      </trkpt>
      <trkpt lat="45.10283" lon="6.18192">
        <ele>1888.2573</ele>
        <time>2012-06-03T08:46:10Z</time>
      </trkpt>
      <trkpt lat="45.10301" lon="6.1818">
        <ele>1889.2379</ele>
        <time>2012-06-03T08:46:19Z</time>
      </trkpt>
      <trkpt lat="45.10321" lon="6.18176">
        <ele>1890.432</ele>
        <time>2012-06-03T08:46:28Z</time>
      </trkpt>
      <trkpt lat="45.10339" lon="6.18176">
        <ele>1891.9282</ele>
        <time>2012-06-03T08:46:37Z</time>
      </trkpt>
      <trkpt lat="45.10357" lon="6.18178">
        <ele>1893.7902</ele>
        <time>2012-06-03T08:46:48Z</time>
      </trkpt>
      <trkpt lat="45.10375" lon="6.18175">
        <ele>1895.573</ele>
        <time>2012-06-03T08:47:00Z</time>
      </trkpt>
      <trkpt lat="45.10394" lon="6.18174">
        <ele>1898.2386</ele>
        <time>2012-06-03T08:47:13Z</time>
      </trkpt>
      <trkpt lat="45.10413" lon="6.18173">
        <ele>1900.5168</ele>
        <time>2012-06-03T08:47:26Z</time>
      </trkpt>
      <trkpt lat="45.10433" lon="6.18176">
        <ele>1903.0634</ele>
        <time>2012-06-03T08:47:40Z</time>
      </trkpt>
      <trkpt lat="45.10454" lon="6.18178">
        <ele>1904.8229</ele>
        <time>2012-06-03T08:47:56Z</time>
      </trkpt>
      <trkpt lat="45.10472" lon="6.1818">
        <ele>1908.0863</ele>
        <time>2012-06-03T08:48:09Z</time>
      </trkpt>
      <trkpt lat="45.10491" lon="6.18185">
        <ele>1909.9054</ele>
        <time>2012-06-03T08:48:22Z</time>
      </trkpt>
      <trkpt lat="45.10509" lon="6.18191">
        <ele>1911.2924</ele>
        <time>2012-06-03T08:48:35Z</time>
      </trkpt>
      <trkpt lat="45.10527" lon="6.18197">
        <ele>1913.1722</ele>
        <time>2012-06-03T08:48:48Z</time>
      </trkpt>
      <trkpt lat="45.10546" lon="6.18202">
        <ele>1914.5082</ele>
        <time>2012-06-03T08:49:00Z</time>
      </trkpt>
      <trkpt lat="45.10565" lon="6.18206">
        <ele>1916.1862</ele>
        <time>2012-06-03T08:49:12Z</time>
      </trkpt>
      <trkpt lat="45.10583" lon="6.18214">
        <ele>1917.9873</ele>
        <time>2012-06-03T08:49:24Z</time>
      </trkpt>
      <trkpt lat="45.106" lon="6.18223">
        <ele>1919.1045</ele>
        <time>2012-06-03T08:49:36Z</time>
      </trkpt>
      <trkpt lat="45.10617" lon="6.18233">
        <ele>1920.5276</ele>
        <time>2012-06-03T08:49:48Z</time>
      </trkpt>
      <trkpt lat="45.10634" lon="6.18243">
        <ele>1923.2427</ele>
        <time>2012-06-03T08:50:01Z</time>
      </trkpt>
      <trkpt lat="45.10657" lon="6.18254">
        <ele>1925.9661</ele>
        <time>2012-06-03T08:52:53Z</time>
      </trkpt>
      <trkpt lat="45.10675" lon="6.1826">
        <ele>1925.5979</ele>
        <time>2012-06-03T08:53:01Z</time>
      </trkpt>
      <trkpt lat="45.10692" lon="6.18267">
        <ele>1924.1653</ele>
        <time>2012-06-03T08:53:06Z</time>
      </trkpt>
      <trkpt lat="45.10711" lon="6.18279">
        <ele>1920.7545</ele>
        <time>2012-06-03T08:53:11Z</time>
      </trkpt>
      <trkpt lat="45.10727" lon="6.18289">
        <ele>1916.2272</ele>
        <time>2012-06-03T08:53:16Z</time>
      </trkpt>
      <trkpt lat="45.10743" lon="6.18309">
        <ele>1911.3829</ele>
        <time>2012-06-03T08:53:21Z</time>
      </trkpt>
      <trkpt lat="45.1075" lon="6.18337">
        <ele>1906.405</ele>
        <time>2012-06-03T08:53:25Z</time>
      </trkpt>
      <trkpt lat="45.10757" lon="6.18364">
        <ele>1901.7133</ele>
        <time>2012-06-03T08:53:29Z</time>
      </trkpt>
      <trkpt lat="45.10772" lon="6.18385">
        <ele>1896.1406</ele>
        <time>2012-06-03T08:53:34Z</time>
      </trkpt>
      <trkpt lat="45.10784" lon="6.18407">
        <ele>1891.4637</ele>
        <time>2012-06-03T08:53:39Z</time>
      </trkpt>
      <trkpt lat="45.10793" lon="6.18433">
        <ele>1888.9084</ele>
        <time>2012-06-03T08:53:43Z</time>
      </trkpt>
      <trkpt lat="45.10812" lon="6.18452">
        <ele>1885.3939</ele>
        <time>2012-06-03T08:53:47Z</time>
      </trkpt>
      <trkpt lat="45.10826" lon="6.18469">
        <ele>1881.9758</ele>
        <time>2012-06-03T08:53:50Z</time>
      </trkpt>
      <trkpt lat="45.10842" lon="6.18492">
        <ele>1877.459</ele>
        <time>2012-06-03T08:53:54Z</time>
      </trkpt>
      <trkpt lat="45.10856" lon="6.1851">
        <ele>1873.8955</ele>
        <time>2012-06-03T08:53:58Z</time>
      </trkpt>
      <trkpt lat="45.10875" lon="6.18523">
        <ele>1871.0084</ele>
        <time>2012-06-03T08:54:03Z</time>
      </trkpt>
      <trkpt lat="45.10891" lon="6.18538">
        <ele>1868.4755</ele>
        <time>2012-06-03T08:54:08Z</time>
      </trkpt>
      <trkpt lat="45.10897" lon="6.18563">
        <ele>1865.9741</ele>
        <time>2012-06-03T08:54:13Z</time>
      </trkpt>
      <trkpt lat="45.10908" lon="6.18585">
        <ele>1863.0298</ele>
        <time>2012-06-03T08:54:20Z</time>
      </trkpt>
      <trkpt lat="45.10926" lon="6.18597">
        <ele>1859.119</ele>
        <time>2012-06-03T08:54:46Z</time>
      </trkpt>
      <trkpt lat="45.10945" lon="6.18596">
        <ele>1857.3877</ele>
        <time>2012-06-03T08:54:54Z</time>
      </trkpt>
      <trkpt lat="45.10963" lon="6.18585">
        <ele>1857.6763</ele>
        <time>2012-06-03T08:55:06Z</time>
      </trkpt>
      <trkpt lat="45.11008" lon="6.1859">
        <ele>1861.6908</ele>
        <time>2012-06-03T08:55:44Z</time>
      </trkpt>
      <trkpt lat="45.11025" lon="6.186">
        <ele>1866.5597</ele>
        <time>2012-06-03T08:55:58Z</time>
      </trkpt>
      <trkpt lat="45.11044" lon="6.18611">
        <ele>1864.8077</ele>
        <time>2012-06-03T08:56:06Z</time>
      </trkpt>
      <trkpt lat="45.11056" lon="6.18632">
        <ele>1861.1887</ele>
        <time>2012-06-03T08:56:15Z</time>
      </trkpt>
      <trkpt lat="45.11057" lon="6.18658">
        <ele>1859.9205</ele>
        <time>2012-06-03T08:56:22Z</time>
      </trkpt>
      <trkpt lat="45.11062" lon="6.18683">
        <ele>1859.6693</ele>
        <time>2012-06-03T08:56:29Z</time>
      </trkpt>
      <trkpt lat="45.11071" lon="6.18705">
        <ele>1859.1154</ele>
        <time>2012-06-03T08:56:38Z</time>
      </trkpt>
      <trkpt lat="45.11091" lon="6.18685">
        <ele>1855.5441</ele>
        <time>2012-06-03T08:57:43Z</time>
      </trkpt>
      <trkpt lat="45.11114" lon="6.18664">
        <ele>1855.066</ele>
        <time>2012-06-03T08:58:24Z</time>
      </trkpt>
      <trkpt lat="45.11133" lon="6.1866">
        <ele>1860.1436</ele>
        <time>2012-06-03T08:58:29Z</time>
      </trkpt>
      <trkpt lat="45.11156" lon="6.18667">
        <ele>1864.2909</ele>
        <time>2012-06-03T08:59:13Z</time>
      </trkpt>
      <trkpt lat="45.11173" lon="6.18676">
        <ele>1867.541</ele>
        <time>2012-06-03T09:00:52Z</time>
      </trkpt>
      <trkpt lat="45.11188" lon="6.18692">
        <ele>1867.7659</ele>
        <time>2012-06-03T09:01:26Z</time>
      </trkpt>
      <trkpt lat="45.11203" lon="6.18707">
        <ele>1868.3853</ele>
        <time>2012-06-03T09:01:35Z</time>
      </trkpt>
      <trkpt lat="45.11221" lon="6.18728">
        <ele>1870.7751</ele>
        <time>2012-06-03T09:02:14Z</time>
      </trkpt>
      <trkpt lat="45.11237" lon="6.18744">
        <ele>1873.2964</ele>
        <time>2012-06-03T09:02:21Z</time>
      </trkpt>
      <trkpt lat="45.11255" lon="6.18751">
        <ele>1875.7097</ele>
        <time>2012-06-03T09:02:33Z</time>
      </trkpt>
      <trkpt lat="45.11274" lon="6.18756">
        <ele>1876.3964</ele>
        <time>2012-06-03T09:02:45Z</time>
      </trkpt>
      <trkpt lat="45.11291" lon="6.18769">
        <ele>1877.9434</ele>
        <time>2012-06-03T09:02:57Z</time>
      </trkpt>
      <trkpt lat="45.1131" lon="6.18775">
        <ele>1878.3677</ele>
        <time>2012-06-03T09:03:07Z</time>
      </trkpt>
      <trkpt lat="45.11329" lon="6.1878">
        <ele>1878.1958</ele>
        <time>2012-06-03T09:03:16Z</time>
      </trkpt>
      <trkpt lat="45.11346" lon="6.18787">
        <ele>1878.5686</ele>
        <time>2012-06-03T09:03:25Z</time>
      </trkpt>
      <trkpt lat="45.11364" lon="6.18799">
        <ele>1878.7535</ele>
        <time>2012-06-03T09:04:11Z</time>
      </trkpt>
      <trkpt lat="45.11382" lon="6.18808">
        <ele>1878.9468</ele>
        <time>2012-06-03T09:04:16Z</time>
      </trkpt>
      <trkpt lat="45.11401" lon="6.18816">
        <ele>1878.3097</ele>
        <time>2012-06-03T09:04:25Z</time>
      </trkpt>
      <trkpt lat="45.1142" lon="6.18822">
        <ele>1877.3546</ele>
        <time>2012-06-03T09:04:46Z</time>
      </trkpt>
      <trkpt lat="45.1144" lon="6.18827">
        <ele>1876.3462</ele>
        <time>2012-06-03T09:04:58Z</time>
      </trkpt>
      <trkpt lat="45.11458" lon="6.18833">
        <ele>1874.3528</ele>
        <time>2012-06-03T09:05:06Z</time>
      </trkpt>
      <trkpt lat="45.11476" lon="6.1884">
        <ele>1871.1693</ele>
        <time>2012-06-03T09:05:15Z</time>
      </trkpt>
      <trkpt lat="45.11493" lon="6.18849">
        <ele>1868.8523</ele>
        <time>2012-06-03T09:05:23Z</time>
      </trkpt>
      <trkpt lat="45.11512" lon="6.18857">
        <ele>1866.3892</ele>
        <time>2012-06-03T09:05:30Z</time>
      </trkpt>
      <trkpt lat="45.11529" lon="6.1887">
        <ele>1864.4227</ele>
        <time>2012-06-03T09:05:36Z</time>
      </trkpt>
      <trkpt lat="45.11546" lon="6.1888">
        <ele>1862.0503</ele>
        <time>2012-06-03T09:05:43Z</time>
      </trkpt>
      <trkpt lat="45.11562" lon="6.18891">
        <ele>1857.7029</ele>
        <time>2012-06-03T09:05:54Z</time>
      </trkpt>
      <trkpt lat="45.11579" lon="6.18907">
        <ele>1854.0907</ele>
        <time>2012-06-03T09:06:46Z</time>
      </trkpt>
      <trkpt lat="45.11595" lon="6.18919">
        <ele>1850.8198</ele>
        <time>2012-06-03T09:06:59Z</time>
      </trkpt>
      <trkpt lat="45.11615" lon="6.18928">
        <ele>1852.486</ele>
        <time>2012-06-03T09:07:31Z</time>
      </trkpt>
      <trkpt lat="45.11634" lon="6.18934">
        <ele>1853.8154</ele>
        <time>2012-06-03T09:07:36Z</time>
      </trkpt>
      <trkpt lat="45.11651" lon="6.18947">
        <ele>1855.5465</ele>
        <time>2012-06-03T09:07:47Z</time>
      </trkpt>
      <trkpt lat="45.11666" lon="6.18964">
        <ele>1856.3729</ele>
        <time>2012-06-03T09:08:01Z</time>
      </trkpt>
      <trkpt lat="45.11683" lon="6.18973">
        <ele>1856.5752</ele>
        <time>2012-06-03T09:08:12Z</time>
      </trkpt>
      <trkpt lat="45.117" lon="6.18985">
        <ele>1857.8217</ele>
        <time>2012-06-03T09:08:23Z</time>
      </trkpt>
      <trkpt lat="45.11717" lon="6.18991">
        <ele>1859.5717</ele>
        <time>2012-06-03T09:08:35Z</time>
      </trkpt>
      <trkpt lat="45.11737" lon="6.19">
        <ele>1860.6428</ele>
        <time>2012-06-03T09:08:46Z</time>
      </trkpt>
      <trkpt lat="45.11754" lon="6.19014">
        <ele>1860.7263</ele>
        <time>2012-06-03T09:08:54Z</time>
      </trkpt>
      <trkpt lat="45.11777" lon="6.19031">
        <ele>1862.541</ele>
        <time>2012-06-03T09:09:42Z</time>
      </trkpt>
      <trkpt lat="45.11793" lon="6.19043">
        <ele>1863.4222</ele>
        <time>2012-06-03T09:09:45Z</time>
      </trkpt>
      <trkpt lat="45.11811" lon="6.19056">
        <ele>1864.6143</ele>
        <time>2012-06-03T09:09:55Z</time>
      </trkpt>
      <trkpt lat="45.11828" lon="6.1907">
        <ele>1865.7408</ele>
        <time>2012-06-03T09:10:04Z</time>
      </trkpt>
      <trkpt lat="45.11839" lon="6.19091">
        <ele>1866.4026</ele>
        <time>2012-06-03T09:10:14Z</time>
      </trkpt>
      <trkpt lat="45.11856" lon="6.19104">
        <ele>1865.3334</ele>
        <time>2012-06-03T09:10:33Z</time>
      </trkpt>
      <trkpt lat="45.11874" lon="6.19105">
        <ele>1862.8088</ele>
        <time>2012-06-03T09:10:44Z</time>
      </trkpt>
      <trkpt lat="45.11891" lon="6.19114">
        <ele>1861.3777</ele>
        <time>2012-06-03T09:14:07Z</time>
      </trkpt>
      <trkpt lat="45.11909" lon="6.19123">
        <ele>1861.5929</ele>
        <time>2012-06-03T09:14:15Z</time>
      </trkpt>
      <trkpt lat="45.11926" lon="6.19135">
        <ele>1863.0997</ele>
        <time>2012-06-03T09:14:26Z</time>
      </trkpt>
      <trkpt lat="45.11941" lon="6.19149">
        <ele>1865.1217</ele>
        <time>2012-06-03T09:14:38Z</time>
      </trkpt>
      <trkpt lat="45.11959" lon="6.19163">
        <ele>1867.7133</ele>
        <time>2012-06-03T09:15:12Z</time>
      </trkpt>
      <trkpt lat="45.11978" lon="6.1918">
        <ele>1871.766</ele>
        <time>2012-06-03T09:15:51Z</time>
      </trkpt>
      <trkpt lat="45.11996" lon="6.19189">
        <ele>1877.3938</ele>
        <time>2012-06-03T09:15:58Z</time>
      </trkpt>
      <trkpt lat="45.12014" lon="6.19198">
        <ele>1879.4645</ele>
        <time>2012-06-03T09:16:10Z</time>
      </trkpt>
      <trkpt lat="45.1203" lon="6.1921">
        <ele>1880.7612</ele>
        <time>2012-06-03T09:16:22Z</time>
      </trkpt>
      <trkpt lat="45.12047" lon="6.19217">
        <ele>1881.8684</ele>
        <time>2012-06-03T09:16:35Z</time>
      </trkpt>
      <trkpt lat="45.12065" lon="6.19227">
        <ele>1882.1023</ele>
        <time>2012-06-03T09:16:46Z</time>
      </trkpt>
      <trkpt lat="45.12082" lon="6.19236">
        <ele>1881.2441</ele>
        <time>2012-06-03T09:16:55Z</time>
      </trkpt>
      <trkpt lat="45.12099" lon="6.19246">
        <ele>1879.9955</ele>
        <time>2012-06-03T09:17:04Z</time>
      </trkpt>
      <trkpt lat="45.12117" lon="6.19257">
        <ele>1878.3604</ele>
        <time>2012-06-03T09:17:11Z</time>
      </trkpt>
      <trkpt lat="45.12133" lon="6.19272">
        <ele>1876.8889</ele>
        <time>2012-06-03T09:17:18Z</time>
      </trkpt>
      <trkpt lat="45.12148" lon="6.1929">
        <ele>1874.9656</ele>
        <time>2012-06-03T09:17:29Z</time>
      </trkpt>
      <trkpt lat="45.12164" lon="6.19304">
        <ele>1873.4125</ele>
        <time>2012-06-03T09:17:35Z</time>
      </trkpt>
      <trkpt lat="45.1218" lon="6.19317">
        <ele>1871.7324</ele>
        <time>2012-06-03T09:17:40Z</time>
      </trkpt>
      <trkpt lat="45.12196" lon="6.19329">
        <ele>1869.1846</ele>
        <time>2012-06-03T09:17:45Z</time>
      </trkpt>
      <trkpt lat="45.12212" lon="6.19348">
        <ele>1866.0916</ele>
        <time>2012-06-03T09:17:51Z</time>
      </trkpt>
      <trkpt lat="45.12228" lon="6.19361">
        <ele>1862.1002</ele>
        <time>2012-06-03T09:18:09Z</time>
      </trkpt>
      <trkpt lat="45.12245" lon="6.19375">
        <ele>1861.8223</ele>
        <time>2012-06-03T09:24:32Z</time>
      </trkpt>
      <trkpt lat="45.12261" lon="6.19388">
        <ele>1861.6305</ele>
        <time>2012-06-03T09:24:34Z</time>
      </trkpt>
      <trkpt lat="45.12278" lon="6.19399">
        <ele>1860.0492</ele>
        <time>2012-06-03T09:24:44Z</time>
      </trkpt>
      <trkpt lat="45.12296" lon="6.19404">
        <ele>1857.2028</ele>
        <time>2012-06-03T09:24:53Z</time>
      </trkpt>
      <trkpt lat="45.12315" lon="6.19411">
        <ele>1855.2399</ele>
        <time>2012-06-03T09:25:20Z</time>
      </trkpt>
      <trkpt lat="45.12329" lon="6.19428">
        <ele>1853.2694</ele>
        <time>2012-06-03T09:25:29Z</time>
      </trkpt>
      <trkpt lat="45.12345" lon="6.19439">
        <ele>1852.476</ele>
        <time>2012-06-03T09:25:44Z</time>
      </trkpt>
      <trkpt lat="45.12363" lon="6.19452">
        <ele>1851.651</ele>
        <time>2012-06-03T09:25:52Z</time>
      </trkpt>
      <trkpt lat="45.1238" lon="6.19467">
        <ele>1850.6078</ele>
        <time>2012-06-03T09:25:58Z</time>
      </trkpt>
      <trkpt lat="45.12395" lon="6.19482">
        <ele>1849.4861</ele>
        <time>2012-06-03T09:26:07Z</time>
      </trkpt>
      <trkpt lat="45.12411" lon="6.19497">
        <ele>1849.282</ele>
        <time>2012-06-03T09:26:17Z</time>
      </trkpt>
      <trkpt lat="45.12423" lon="6.19517">
        <ele>1849.2198</ele>
        <time>2012-06-03T09:26:28Z</time>
      </trkpt>
      <trkpt lat="45.12442" lon="6.19519">
        <ele>1848.0652</ele>
        <time>2012-06-03T09:26:37Z</time>
      </trkpt>
      <trkpt lat="45.12461" lon="6.19529">
        <ele>1846.9578</ele>
        <time>2012-06-03T09:26:43Z</time>
      </trkpt>
      <trkpt lat="45.12481" lon="6.19537">
        <ele>1846.2708</ele>
        <time>2012-06-03T09:26:50Z</time>
      </trkpt>
      <trkpt lat="45.12487" lon="6.19567">
        <ele>1849.7222</ele>
        <time>2012-06-03T09:29:14Z</time>
      </trkpt>
      <trkpt lat="45.12479" lon="6.19589">
        <ele>1856.1165</ele>
        <time>2012-06-03T09:29:23Z</time>
      </trkpt>
      <trkpt lat="45.12478" lon="6.19618">
        <ele>1859.9033</ele>
        <time>2012-06-03T09:30:17Z</time>
      </trkpt>
      <trkpt lat="45.12478" lon="6.19644">
        <ele>1863.8263</ele>
        <time>2012-06-03T09:30:24Z</time>
      </trkpt>
      <trkpt lat="45.12499" lon="6.19653">
        <ele>1863.804</ele>
        <time>2012-06-03T09:30:46Z</time>
      </trkpt>
      <trkpt lat="45.12514" lon="6.19669">
        <ele>1863.4493</ele>
        <time>2012-06-03T09:30:57Z</time>
      </trkpt>
      <trkpt lat="45.1253" lon="6.19686">
        <ele>1863.1073</ele>
        <time>2012-06-03T09:31:07Z</time>
      </trkpt>
      <trkpt lat="45.12551" lon="6.19708">
        <ele>1862.941</ele>
        <time>2012-06-03T09:33:15Z</time>
      </trkpt>
      <trkpt lat="45.12564" lon="6.19726">
        <ele>1863.9785</ele>
        <time>2012-06-03T09:33:19Z</time>
      </trkpt>
      <trkpt lat="45.12579" lon="6.19747">
        <ele>1866.9409</ele>
        <time>2012-06-03T09:34:31Z</time>
      </trkpt>
      <trkpt lat="45.12592" lon="6.19765">
        <ele>1872.0765</ele>
        <time>2012-06-03T09:34:35Z</time>
      </trkpt>
      <trkpt lat="45.12608" lon="6.19777">
        <ele>1873.5217</ele>
        <time>2012-06-03T09:34:52Z</time>
      </trkpt>
      <trkpt lat="45.12627" lon="6.19785">
        <ele>1872.0396</ele>
        <time>2012-06-03T09:35:01Z</time>
      </trkpt>
      <trkpt lat="45.12645" lon="6.19801">
        <ele>1871.5846</ele>
        <time>2012-06-03T09:36:00Z</time>
      </trkpt>
      <trkpt lat="45.12663" lon="6.19801">
        <ele>1870.345</ele>
        <time>2012-06-03T09:36:04Z</time>
      </trkpt>
      <trkpt lat="45.12682" lon="6.19805">
        <ele>1867.9948</ele>
        <time>2012-06-03T09:36:11Z</time>
      </trkpt>
      <trkpt lat="45.12701" lon="6.19813">
        <ele>1865.6411</ele>
        <time>2012-06-03T09:36:49Z</time>
      </trkpt>
      <trkpt lat="45.12718" lon="6.19818">
        <ele>1865.1239</ele>
        <time>2012-06-03T09:36:53Z</time>
      </trkpt>
      <trkpt lat="45.12737" lon="6.19818">
        <ele>1863.2892</ele>
        <time>2012-06-03T09:36:58Z</time>
      </trkpt>
      <trkpt lat="45.12756" lon="6.19822">
        <ele>1861.1517</ele>
        <time>2012-06-03T09:37:04Z</time>
      </trkpt>
      <trkpt lat="45.12776" lon="6.19832">
        <ele>1858.9097</ele>
        <time>2012-06-03T09:37:39Z</time>
      </trkpt>
      <trkpt lat="45.12794" lon="6.19832">
        <ele>1857.2389</ele>
        <time>2012-06-03T09:37:45Z</time>
      </trkpt>
      <trkpt lat="45.12812" lon="6.1983">
        <ele>1856.1665</ele>
        <time>2012-06-03T09:37:55Z</time>
      </trkpt>
      <trkpt lat="45.12831" lon="6.19829">
        <ele>1856.3833</ele>
        <time>2012-06-03T09:38:06Z</time>
      </trkpt>
      <trkpt lat="45.12849" lon="6.19831">
        <ele>1856.989</ele>
        <time>2012-06-03T09:38:18Z</time>
      </trkpt>
      <trkpt lat="45.1287" lon="6.19843">
        <ele>1861.0596</ele>
        <time>2012-06-03T09:39:42Z</time>
      </trkpt>
      <trkpt lat="45.12885" lon="6.19856">
        <ele>1866.0319</ele>
        <time>2012-06-03T09:39:51Z</time>
      </trkpt>
      <trkpt lat="45.12904" lon="6.19865">
        <ele>1868.5658</ele>
        <time>2012-06-03T09:40:39Z</time>
      </trkpt>
      <trkpt lat="45.12921" lon="6.19873">
        <ele>1872.0223</ele>
        <time>2012-06-03T09:40:51Z</time>
      </trkpt>
      <trkpt lat="45.1294" lon="6.19885">
        <ele>1874.047</ele>
        <time>2012-06-03T09:41:26Z</time>
      </trkpt>
      <trkpt lat="45.12956" lon="6.19897">
        <ele>1876.6288</ele>
        <time>2012-06-03T09:41:35Z</time>
      </trkpt>
      <trkpt lat="45.12972" lon="6.19913">
        <ele>1879.1658</ele>
        <time>2012-06-03T09:42:06Z</time>
      </trkpt>
      <trkpt lat="45.12989" lon="6.19928">
        <ele>1882.532</ele>
        <time>2012-06-03T09:42:18Z</time>
      </trkpt>
      <trkpt lat="45.13007" lon="6.19936">
        <ele>1883.811</ele>
        <time>2012-06-03T09:42:28Z</time>
      </trkpt>
      <trkpt lat="45.13024" lon="6.19948">
        <ele>1884.5973</ele>
        <time>2012-06-03T09:42:39Z</time>
      </trkpt>
      <trkpt lat="45.13042" lon="6.19957">
        <ele>1885.6605</ele>
        <time>2012-06-03T09:42:50Z</time>
      </trkpt>
      <trkpt lat="45.13054" lon="6.19977">
        <ele>1886.1399</ele>
        <time>2012-06-03T09:43:00Z</time>
      </trkpt>
      <trkpt lat="45.13073" lon="6.19982">
        <ele>1886.8317</ele>
        <time>2012-06-03T09:43:12Z</time>
      </trkpt>
      <trkpt lat="45.13089" lon="6.19996">
        <ele>1887.488</ele>
        <time>2012-06-03T09:43:24Z</time>
      </trkpt>
      <trkpt lat="45.13103" lon="6.20012">
        <ele>1887.2189</ele>
        <time>2012-06-03T09:43:34Z</time>
      </trkpt>
      <trkpt lat="45.13121" lon="6.2002">
        <ele>1889.0067</ele>
        <time>2012-06-03T09:43:46Z</time>
      </trkpt>
      <trkpt lat="45.13141" lon="6.2003">
        <ele>1888.6052</ele>
        <time>2012-06-03T09:43:52Z</time>
      </trkpt>
      <trkpt lat="45.13159" lon="6.2004">
        <ele>1887.6586</ele>
        <time>2012-06-03T09:43:57Z</time>
      </trkpt>
      <trkpt lat="45.13177" lon="6.20046">
        <ele>1887.1735</ele>
        <time>2012-06-03T09:44:05Z</time>
      </trkpt>
      <trkpt lat="45.13195" lon="6.20057">
        <ele>1886.9109</ele>
        <time>2012-06-03T09:44:14Z</time>
      </trkpt>
      <trkpt lat="45.13208" lon="6.20077">
        <ele>1886.3522</ele>
        <time>2012-06-03T09:44:23Z</time>
      </trkpt>
      <trkpt lat="45.13226" lon="6.20086">
        <ele>1885.1782</ele>
        <time>2012-06-03T09:44:34Z</time>
      </trkpt>
      <trkpt lat="45.13245" lon="6.20088">
        <ele>1884.3933</ele>
        <time>2012-06-03T09:44:42Z</time>
      </trkpt>
      <trkpt lat="45.13262" lon="6.20099">
        <ele>1884.6864</ele>
        <time>2012-06-03T09:44:50Z</time>
      </trkpt>
      <trkpt lat="45.13276" lon="6.20115">
        <ele>1884.5748</ele>
        <time>2012-06-03T09:44:58Z</time>
      </trkpt>
      <trkpt lat="45.13289" lon="6.20137">
        <ele>1884.0969</ele>
        <time>2012-06-03T09:45:07Z</time>
      </trkpt>
      <trkpt lat="45.13306" lon="6.2015">
        <ele>1884.1266</ele>
        <time>2012-06-03T09:45:18Z</time>
      </trkpt>
      <trkpt lat="45.13323" lon="6.20159">
        <ele>1883.832</ele>
        <time>2012-06-03T09:45:29Z</time>
      </trkpt>
      <trkpt lat="45.1334" lon="6.20168">
        <ele>1884.7975</ele>
        <time>2012-06-03T09:45:41Z</time>
      </trkpt>
      <trkpt lat="45.13354" lon="6.20186">
        <ele>1885.9645</ele>
        <time>2012-06-03T09:45:52Z</time>
      </trkpt>
      <trkpt lat="45.13369" lon="6.20203">
        <ele>1886.9031</ele>
        <time>2012-06-03T09:46:04Z</time>
      </trkpt>
      <trkpt lat="45.13382" lon="6.20224">
        <ele>1887.0658</ele>
        <time>2012-06-03T09:46:16Z</time>
      </trkpt>
      <trkpt lat="45.13394" lon="6.20245">
        <ele>1887.4844</ele>
        <time>2012-06-03T09:46:27Z</time>
      </trkpt>
      <trkpt lat="45.13409" lon="6.20264">
        <ele>1889.6409</ele>
        <time>2012-06-03T09:47:35Z</time>
      </trkpt>
      <trkpt lat="45.13422" lon="6.20282">
        <ele>1890.291</ele>
        <time>2012-06-03T09:48:24Z</time>
      </trkpt>
      <trkpt lat="45.13444" lon="6.20284">
        <ele>1889.3542</ele>
        <time>2012-06-03T09:48:27Z</time>
      </trkpt>
      <trkpt lat="45.13458" lon="6.20301">
        <ele>1888.3326</ele>
        <time>2012-06-03T09:48:33Z</time>
      </trkpt>
      <trkpt lat="45.13476" lon="6.203">
        <ele>1887.9004</ele>
        <time>2012-06-03T09:49:13Z</time>
      </trkpt>
      <trkpt lat="45.13494" lon="6.20307">
        <ele>1888.6946</ele>
        <time>2012-06-03T09:49:24Z</time>
      </trkpt>
      <trkpt lat="45.1351" lon="6.20319">
        <ele>1890.0577</ele>
        <time>2012-06-03T09:49:34Z</time>
      </trkpt>
      <trkpt lat="45.13528" lon="6.20323">
        <ele>1890.853</ele>
        <time>2012-06-03T09:49:44Z</time>
      </trkpt>
      <trkpt lat="45.13547" lon="6.20327">
        <ele>1891.5272</ele>
        <time>2012-06-03T09:49:55Z</time>
      </trkpt>
      <trkpt lat="45.13565" lon="6.20336">
        <ele>1891.7435</ele>
        <time>2012-06-03T09:50:05Z</time>
      </trkpt>
      <trkpt lat="45.13579" lon="6.20354">
        <ele>1890.9736</ele>
        <time>2012-06-03T09:50:13Z</time>
      </trkpt>
      <trkpt lat="45.13593" lon="6.20339">
        <ele>1890.5516</ele>
        <time>2012-06-03T09:50:22Z</time>
      </trkpt>
      <trkpt lat="45.13611" lon="6.20345">
        <ele>1890.7648</ele>
        <time>2012-06-03T09:50:31Z</time>
      </trkpt>
      <trkpt lat="45.13628" lon="6.20357">
        <ele>1891.3699</ele>
        <time>2012-06-03T09:50:41Z</time>
      </trkpt>
      <trkpt lat="45.13647" lon="6.20362">
        <ele>1891.5282</ele>
        <time>2012-06-03T09:50:50Z</time>
      </trkpt>
      <trkpt lat="45.13664" lon="6.20371">
        <ele>1891.949</ele>
        <time>2012-06-03T09:51:01Z</time>
      </trkpt>
      <trkpt lat="45.13681" lon="6.2038">
        <ele>1892.9657</ele>
        <time>2012-06-03T09:51:13Z</time>
      </trkpt>
      <trkpt lat="45.13699" lon="6.20387">
        <ele>1894.0391</ele>
        <time>2012-06-03T09:51:25Z</time>
      </trkpt>
      <trkpt lat="45.13716" lon="6.20399">
        <ele>1894.5962</ele>
        <time>2012-06-03T09:51:36Z</time>
      </trkpt>
      <trkpt lat="45.13727" lon="6.2042">
        <ele>1896.0072</ele>
        <time>2012-06-03T09:51:48Z</time>
      </trkpt>
      <trkpt lat="45.13745" lon="6.20425">
        <ele>1897.4565</ele>
        <time>2012-06-03T09:52:02Z</time>
      </trkpt>
      <trkpt lat="45.13765" lon="6.20429">
        <ele>1899.039</ele>
        <time>2012-06-03T09:52:16Z</time>
      </trkpt>
      <trkpt lat="45.13784" lon="6.20429">
        <ele>1898.8365</ele>
        <time>2012-06-03T09:52:22Z</time>
      </trkpt>
      <trkpt lat="45.13805" lon="6.20422">
        <ele>1898.7332</ele>
        <time>2012-06-03T09:52:28Z</time>
      </trkpt>
      <trkpt lat="45.13824" lon="6.20412">
        <ele>1897.9838</ele>
        <time>2012-06-03T09:52:33Z</time>
      </trkpt>
      <trkpt lat="45.13843" lon="6.20406">
        <ele>1896.7487</ele>
        <time>2012-06-03T09:52:39Z</time>
      </trkpt>
      <trkpt lat="45.1386" lon="6.20418">
        <ele>1895.5818</ele>
        <time>2012-06-03T09:52:47Z</time>
      </trkpt>
      <trkpt lat="45.13872" lon="6.20438">
        <ele>1893.4106</ele>
        <time>2012-06-03T09:52:58Z</time>
      </trkpt>
      <trkpt lat="45.13883" lon="6.20459">
        <ele>1892.2323</ele>
        <time>2012-06-03T09:53:08Z</time>
      </trkpt>
      <trkpt lat="45.13895" lon="6.2048">
        <ele>1892.4409</ele>
        <time>2012-06-03T09:55:41Z</time>
      </trkpt>
      <trkpt lat="45.13899" lon="6.20454">
        <ele>1899.5988</ele>
        <time>2012-06-03T10:04:40Z</time>
      </trkpt>
      <trkpt lat="45.13898" lon="6.20419">
        <ele>1904.6188</ele>
        <time>2012-06-03T10:04:53Z</time>
      </trkpt>
      <trkpt lat="45.13921" lon="6.20413">
        <ele>1903.8269</ele>
        <time>2012-06-03T10:05:28Z</time>
      </trkpt>
      <trkpt lat="45.13948" lon="6.20415">
        <ele>1905.416</ele>
        <time>2012-06-03T10:06:22Z</time>
      </trkpt>
      <trkpt lat="45.13967" lon="6.20418">
        <ele>1910.0559</ele>
        <time>2012-06-03T10:06:27Z</time>
      </trkpt>
      <trkpt lat="45.13991" lon="6.2042">
        <ele>1910.3033</ele>
        <time>2012-06-03T10:07:22Z</time>
      </trkpt>
      <trkpt lat="45.1401" lon="6.2042">
        <ele>1909.1573</ele>
        <time>2012-06-03T10:07:30Z</time>
      </trkpt>
      <trkpt lat="45.14029" lon="6.20422">
        <ele>1914.2284</ele>
        <time>2012-06-03T10:08:16Z</time>
      </trkpt>
      <trkpt lat="45.14048" lon="6.20424">
        <ele>1921.5311</ele>
        <time>2012-06-03T10:08:39Z</time>
      </trkpt>
      <trkpt lat="45.14066" lon="6.20432">
        <ele>1924.5784</ele>
        <time>2012-06-03T10:09:34Z</time>
      </trkpt>
      <trkpt lat="45.14083" lon="6.20439">
        <ele>1928.4882</ele>
        <time>2012-06-03T10:09:49Z</time>
      </trkpt>
      <trkpt lat="45.14103" lon="6.2044">
        <ele>1929.7283</ele>
        <time>2012-06-03T10:10:36Z</time>
      </trkpt>
      <trkpt lat="45.14121" lon="6.20442">
        <ele>1931.4371</ele>
        <time>2012-06-03T10:10:46Z</time>
      </trkpt>
      <trkpt lat="45.14141" lon="6.20449">
        <ele>1940.5631</ele>
        <time>2012-06-03T10:11:34Z</time>
      </trkpt>
      <trkpt lat="45.14159" lon="6.20457">
        <ele>1945.1411</ele>
        <time>2012-06-03T10:15:39Z</time>
      </trkpt>
      <trkpt lat="45.14177" lon="6.20465">
        <ele>1946.4032</ele>
        <time>2012-06-03T10:16:29Z</time>
      </trkpt>
      <trkpt lat="45.14194" lon="6.20474">
        <ele>1947.6322</ele>
        <time>2012-06-03T10:16:46Z</time>
      </trkpt>
      <trkpt lat="45.14213" lon="6.2048">
        <ele>1943.2161</ele>
        <time>2012-06-03T10:17:15Z</time>
      </trkpt>
      <trkpt lat="45.14235" lon="6.20485">
        <ele>1935.0911</ele>
        <time>2012-06-03T10:17:57Z</time>
      </trkpt>
      <trkpt lat="45.14252" lon="6.2049">
        <ele>1958.0876</ele>
        <time>2012-06-03T10:18:08Z</time>
      </trkpt>
      <trkpt lat="45.14274" lon="6.20499">
        <ele>1970.917</ele>
        <time>2012-06-03T10:18:51Z</time>
      </trkpt>
      <trkpt lat="45.14264" lon="6.20527">
        <ele>1982.2229</ele>
        <time>2012-06-03T10:20:02Z</time>
      </trkpt>
      <trkpt lat="45.14275" lon="6.2055">
        <ele>1989.4043</ele>
        <time>2012-06-03T10:21:15Z</time>
      </trkpt>
      <trkpt lat="45.14261" lon="6.20572">
        <ele>1998.6604</ele>
        <time>2012-06-03T10:22:07Z</time>
      </trkpt>
      <trkpt lat="45.14273" lon="6.20591">
        <ele>2006.1887</ele>
        <time>2012-06-03T10:23:21Z</time>
      </trkpt>
      <trkpt lat="45.14286" lon="6.20616">
        <ele>2015.1909</ele>
        <time>2012-06-03T10:25:30Z</time>
      </trkpt>
      <trkpt lat="45.14285" lon="6.20642">
        <ele>2027.7075</ele>
        <time>2012-06-03T10:25:37Z</time>
      </trkpt>
      <trkpt lat="45.14299" lon="6.20662">
        <ele>2035.984</ele>
        <time>2012-06-03T10:27:32Z</time>
      </trkpt>
      <trkpt lat="45.14314" lon="6.20677">
        <ele>2044.141</ele>
        <time>2012-06-03T10:28:31Z</time>
      </trkpt>
      <trkpt lat="45.14337" lon="6.20686">
        <ele>2043.7026</ele>
        <time>2012-06-03T10:31:08Z</time>
      </trkpt>
      <trkpt lat="45.14357" lon="6.20696">
        <ele>2045.0906</ele>
        <time>2012-06-03T10:31:44Z</time>
      </trkpt>
      <trkpt lat="45.14377" lon="6.20711">
        <ele>2048.2249</ele>
        <time>2012-06-03T10:31:48Z</time>
      </trkpt>
      <trkpt lat="45.14394" lon="6.20723">
        <ele>2050.0908</ele>
        <time>2012-06-03T10:32:33Z</time>
      </trkpt>
      <trkpt lat="45.14412" lon="6.20732">
        <ele>2051.0984</ele>
        <time>2012-06-03T10:32:38Z</time>
      </trkpt>
      <trkpt lat="45.14435" lon="6.20733">
        <ele>2052.1157</ele>
        <time>2012-06-03T10:33:21Z</time>
      </trkpt>
      <trkpt lat="45.14454" lon="6.20734">
        <ele>2053.808</ele>
        <time>2012-06-03T10:33:25Z</time>
      </trkpt>
      <trkpt lat="45.14473" lon="6.20732">
        <ele>2053.5508</ele>
        <time>2012-06-03T10:33:43Z</time>
      </trkpt>
      <trkpt lat="45.14492" lon="6.2073">
        <ele>2052.1992</ele>
        <time>2012-06-03T10:33:53Z</time>
      </trkpt>
      <trkpt lat="45.14511" lon="6.20726">
        <ele>2051.264</ele>
        <time>2012-06-03T10:34:02Z</time>
      </trkpt>
      <trkpt lat="45.14529" lon="6.20723">
        <ele>2049.1458</ele>
        <time>2012-06-03T10:34:11Z</time>
      </trkpt>
      <trkpt lat="45.14547" lon="6.20712">
        <ele>2048.7295</ele>
        <time>2012-06-03T10:34:20Z</time>
      </trkpt>
      <trkpt lat="45.14565" lon="6.20706">
        <ele>2048.0293</ele>
        <time>2012-06-03T10:34:25Z</time>
      </trkpt>
      <trkpt lat="45.14583" lon="6.20704">
        <ele>2048.0002</ele>
        <time>2012-06-03T10:34:31Z</time>
      </trkpt>
      <trkpt lat="45.146" lon="6.20689">
        <ele>2048.244</ele>
        <time>2012-06-03T10:34:38Z</time>
      </trkpt>
      <trkpt lat="45.14617" lon="6.20679">
        <ele>2046.847</ele>
        <time>2012-06-03T10:34:45Z</time>
      </trkpt>
      <trkpt lat="45.14637" lon="6.20672">
        <ele>2044.6221</ele>
        <time>2012-06-03T10:34:53Z</time>
      </trkpt>
      <trkpt lat="45.14652" lon="6.20657">
        <ele>2044.1759</ele>
        <time>2012-06-03T10:35:00Z</time>
      </trkpt>
      <trkpt lat="45.14665" lon="6.20633">
        <ele>2043.9678</ele>
        <time>2012-06-03T10:35:06Z</time>
      </trkpt>
      <trkpt lat="45.14683" lon="6.20616">
        <ele>2042.93</ele>
        <time>2012-06-03T10:35:11Z</time>
      </trkpt>
      <trkpt lat="45.147" lon="6.20606">
        <ele>2040.6012</ele>
        <time>2012-06-03T10:35:20Z</time>
      </trkpt>
      <trkpt lat="45.14719" lon="6.20604">
        <ele>2038.6084</ele>
        <time>2012-06-03T10:35:30Z</time>
      </trkpt>
      <trkpt lat="45.1474" lon="6.20595">
        <ele>2042.9847</ele>
        <time>2012-06-03T10:36:21Z</time>
      </trkpt>
      <trkpt lat="45.14756" lon="6.20585">
        <ele>2047.4447</ele>
        <time>2012-06-03T10:36:29Z</time>
      </trkpt>
      <trkpt lat="45.14776" lon="6.20576">
        <ele>2049.0596</ele>
        <time>2012-06-03T10:37:16Z</time>
      </trkpt>
      <trkpt lat="45.14793" lon="6.20564">
        <ele>2050.7947</ele>
        <time>2012-06-03T10:37:25Z</time>
      </trkpt>
      <trkpt lat="45.14806" lon="6.20547">
        <ele>2054.816</ele>
        <time>2012-06-03T10:38:03Z</time>
      </trkpt>
      <trkpt lat="45.1482" lon="6.20529">
        <ele>2059.7778</ele>
        <time>2012-06-03T10:38:11Z</time>
      </trkpt>
      <trkpt lat="45.14826" lon="6.20505">
        <ele>2063.4917</ele>
        <time>2012-06-03T10:38:29Z</time>
      </trkpt>
      <trkpt lat="45.14834" lon="6.20481">
        <ele>2065.6191</ele>
        <time>2012-06-03T10:38:38Z</time>
      </trkpt>
      <trkpt lat="45.14852" lon="6.20458">
        <ele>2071.9976</ele>
        <time>2012-06-03T10:42:05Z</time>
      </trkpt>
      <trkpt lat="45.14866" lon="6.20441">
        <ele>2075.0989</ele>
        <time>2012-06-03T10:42:20Z</time>
      </trkpt>
      <trkpt lat="45.14875" lon="6.20414">
        <ele>2084.618</ele>
        <time>2012-06-03T10:43:20Z</time>
      </trkpt>
      <trkpt lat="45.14887" lon="6.20395">
        <ele>2094.5283</ele>
        <time>2012-06-03T10:45:11Z</time>
      </trkpt>
      <trkpt lat="45.14905" lon="6.20399">
        <ele>2103.3774</ele>
        <time>2012-06-03T10:45:18Z</time>
      </trkpt>
      <trkpt lat="45.14931" lon="6.20401">
        <ele>2113.6528</ele>
        <time>2012-06-03T10:46:52Z</time>
      </trkpt>
      <trkpt lat="45.14949" lon="6.20403">
        <ele>2122.2407</ele>
        <time>2012-06-03T10:48:37Z</time>
      </trkpt>
      <trkpt lat="45.1497" lon="6.20399">
        <ele>2131.02</ele>
        <time>2012-06-03T10:48:41Z</time>
      </trkpt>
      <trkpt lat="45.14999" lon="6.20403">
        <ele>2146.327</ele>
        <time>2012-06-03T10:50:29Z</time>
      </trkpt>
      <trkpt lat="45.15019" lon="6.20408">
        <ele>2155.2656</ele>
        <time>2012-06-03T10:52:09Z</time>
      </trkpt>
      <trkpt lat="45.15038" lon="6.20402">
        <ele>2163.6277</ele>
        <time>2012-06-03T10:52:14Z</time>
      </trkpt>
      <trkpt lat="45.1506" lon="6.20398">
        <ele>2169.4907</ele>
        <time>2012-06-03T10:53:18Z</time>
      </trkpt>
      <trkpt lat="45.1508" lon="6.20397">
        <ele>2177.3396</ele>
        <time>2012-06-03T10:53:23Z</time>
      </trkpt>
      <trkpt lat="45.15099" lon="6.20397">
        <ele>2181.566</ele>
        <time>2012-06-03T10:55:54Z</time>
      </trkpt>
      <trkpt lat="45.15118" lon="6.20394">
        <ele>2185.234</ele>
        <time>2012-06-03T10:55:59Z</time>
      </trkpt>
      <trkpt lat="45.15137" lon="6.20391">
        <ele>2187.0908</ele>
        <time>2012-06-03T10:56:50Z</time>
      </trkpt>
      <trkpt lat="45.15154" lon="6.20388">
        <ele>2188.8667</ele>
        <time>2012-06-03T10:56:54Z</time>
      </trkpt>
      <trkpt lat="45.15175" lon="6.20383">
        <ele>2189.9155</ele>
        <time>2012-06-03T10:57:43Z</time>
      </trkpt>
      <trkpt lat="45.15194" lon="6.20378">
        <ele>2190.5183</ele>
        <time>2012-06-03T10:57:48Z</time>
      </trkpt>
      <trkpt lat="45.15212" lon="6.20374">
        <ele>2192.6157</ele>
        <time>2012-06-03T10:58:35Z</time>
      </trkpt>
      <trkpt lat="45.1523" lon="6.20368">
        <ele>2196.9634</ele>
        <time>2012-06-03T10:58:40Z</time>
      </trkpt>
      <trkpt lat="45.15248" lon="6.20361">
        <ele>2200.8406</ele>
        <time>2012-06-03T10:59:38Z</time>
      </trkpt>
      <trkpt lat="45.15266" lon="6.20352">
        <ele>2207.034</ele>
        <time>2012-06-03T10:59:43Z</time>
      </trkpt>
      <trkpt lat="45.15286" lon="6.20336">
        <ele>2211.7778</ele>
        <time>2012-06-03T11:00:37Z</time>
      </trkpt>
      <trkpt lat="45.15302" lon="6.20324">
        <ele>2215.3481</ele>
        <time>2012-06-03T11:00:46Z</time>
      </trkpt>
      <trkpt lat="45.15323" lon="6.20316">
        <ele>2219.34</ele>
        <time>2012-06-03T11:01:28Z</time>
      </trkpt>
      <trkpt lat="45.15353" lon="6.20306">
        <ele>2226.1655</ele>
        <time>2012-06-03T11:02:22Z</time>
      </trkpt>
      <trkpt lat="45.15371" lon="6.20301">
        <ele>2230.6694</ele>
        <time>2012-06-03T11:02:27Z</time>
      </trkpt>
      <trkpt lat="45.15389" lon="6.20295">
        <ele>2233.5903</ele>
        <time>2012-06-03T11:03:22Z</time>
      </trkpt>
      <trkpt lat="45.15408" lon="6.20286">
        <ele>2236.9656</ele>
        <time>2012-06-03T11:03:27Z</time>
      </trkpt>
      <trkpt lat="45.15418" lon="6.20259">
        <ele>2241.878</ele>
        <time>2012-06-03T11:04:32Z</time>
      </trkpt>
      <trkpt lat="45.15438" lon="6.20232">
        <ele>2250.3655</ele>
        <time>2012-06-03T11:05:55Z</time>
      </trkpt>
      <trkpt lat="45.15456" lon="6.20223">
        <ele>2257.4548</ele>
        <time>2012-06-03T11:06:00Z</time>
      </trkpt>
      <trkpt lat="45.15458" lon="6.20194">
        <ele>2265.1035</ele>
        <time>2012-06-03T11:07:24Z</time>
      </trkpt>
      <trkpt lat="45.15455" lon="6.20169">
        <ele>2271.7952</ele>
        <time>2012-06-03T11:07:33Z</time>
      </trkpt>
      <trkpt lat="45.15459" lon="6.20141">
        <ele>2276.6343</ele>
        <time>2012-06-03T11:08:35Z</time>
      </trkpt>
      <trkpt lat="45.15461" lon="6.20115">
        <ele>2281.8225</ele>
        <time>2012-06-03T11:08:44Z</time>
      </trkpt>
      <trkpt lat="45.15456" lon="6.20086">
        <ele>2283.422</ele>
        <time>2012-06-03T11:12:12Z</time>
      </trkpt>
      <trkpt lat="45.15451" lon="6.20062">
        <ele>2283.8267</ele>
        <time>2012-06-03T11:12:13Z</time>
      </trkpt>
      <trkpt lat="45.15444" lon="6.20035">
        <ele>2285.4543</ele>
        <time>2012-06-03T11:12:22Z</time>
      </trkpt>
      <trkpt lat="45.15454" lon="6.20014">
        <ele>2286.7156</ele>
        <time>2012-06-03T11:12:31Z</time>
      </trkpt>
      <trkpt lat="45.15474" lon="6.19991">
        <ele>2289.741</ele>
        <time>2012-06-03T11:13:19Z</time>
      </trkpt>
      <trkpt lat="45.15488" lon="6.19975">
        <ele>2292.8066</ele>
        <time>2012-06-03T11:13:23Z</time>
      </trkpt>
      <trkpt lat="45.15496" lon="6.19951">
        <ele>2296.7158</ele>
        <time>2012-06-03T11:14:45Z</time>
      </trkpt>
      <trkpt lat="45.15499" lon="6.19924">
        <ele>2302.726</ele>
        <time>2012-06-03T11:14:50Z</time>
      </trkpt>
      <trkpt lat="45.15498" lon="6.19898">
        <ele>2306.616</ele>
        <time>2012-06-03T11:15:42Z</time>
      </trkpt>
      <trkpt lat="45.15498" lon="6.19871">
        <ele>2311.4634</ele>
        <time>2012-06-03T11:15:47Z</time>
      </trkpt>
      <trkpt lat="45.15515" lon="6.19849">
        <ele>2314.6533</ele>
        <time>2012-06-03T11:16:32Z</time>
      </trkpt>
      <trkpt lat="45.15531" lon="6.19837">
        <ele>2316.7053</ele>
        <time>2012-06-03T11:16:40Z</time>
      </trkpt>
      <trkpt lat="45.15551" lon="6.19836">
        <ele>2319.897</ele>
        <time>2012-06-03T11:17:21Z</time>
      </trkpt>
      <trkpt lat="45.15569" lon="6.19838">
        <ele>2323.3967</ele>
        <time>2012-06-03T11:17:28Z</time>
      </trkpt>
      <trkpt lat="45.15584" lon="6.19859">
        <ele>2324.3472</ele>
        <time>2012-06-03T11:21:04Z</time>
      </trkpt>
      <trkpt lat="45.15597" lon="6.19876">
        <ele>2325.9624</ele>
        <time>2012-06-03T11:21:15Z</time>
      </trkpt>
      <trkpt lat="45.15596" lon="6.1985">
        <ele>2328.284</ele>
        <time>2012-06-03T11:43:34Z</time>
      </trkpt>
      <trkpt lat="45.15608" lon="6.1983">
        <ele>2326.5215</ele>
        <time>2012-06-03T11:43:56Z</time>
      </trkpt>
      <trkpt lat="45.15607" lon="6.19804">
        <ele>2324.3806</ele>
        <time>2012-06-03T11:44:10Z</time>
      </trkpt>
      <trkpt lat="45.15606" lon="6.19779">
        <ele>2320.6887</ele>
        <time>2012-06-03T11:44:52Z</time>
      </trkpt>
      <trkpt lat="45.15606" lon="6.19752">
        <ele>2321.876</ele>
        <time>2012-06-03T11:45:17Z</time>
      </trkpt>
      <trkpt lat="45.15605" lon="6.19778">
        <ele>2321.688</ele>
        <time>2012-06-03T11:46:03Z</time>
      </trkpt>
      <trkpt lat="45.15587" lon="6.19775">
        <ele>2324.727</ele>
        <time>2012-06-03T11:46:59Z</time>
      </trkpt>
      <trkpt lat="45.15575" lon="6.19755">
        <ele>2326.8186</ele>
        <time>2012-06-03T11:47:22Z</time>
      </trkpt>
      <trkpt lat="45.15566" lon="6.19732">
        <ele>2328.3357</ele>
        <time>2012-06-03T11:47:42Z</time>
      </trkpt>
      <trkpt lat="45.15558" lon="6.19708">
        <ele>2327.6577</ele>
        <time>2012-06-03T11:47:58Z</time>
      </trkpt>
      <trkpt lat="45.15547" lon="6.19687">
        <ele>2326.2202</ele>
        <time>2012-06-03T11:48:14Z</time>
      </trkpt>
      <trkpt lat="45.15531" lon="6.19673">
        <ele>2327.0684</ele>
        <time>2012-06-03T11:48:33Z</time>
      </trkpt>
      <trkpt lat="45.15514" lon="6.19662">
        <ele>2332.3132</ele>
        <time>2012-06-03T11:48:59Z</time>
      </trkpt>
      <trkpt lat="45.15497" lon="6.19651">
        <ele>2337.2822</ele>
        <time>2012-06-03T11:49:31Z</time>
      </trkpt>
      <trkpt lat="45.15483" lon="6.19637">
        <ele>2341.5334</ele>
        <time>2012-06-03T11:50:02Z</time>
      </trkpt>
      <trkpt lat="45.15464" lon="6.19641">
        <ele>2343.6597</ele>
        <time>2012-06-03T11:50:30Z</time>
      </trkpt>
      <trkpt lat="45.15447" lon="6.19635">
        <ele>2349.2244</ele>
        <time>2012-06-03T11:50:59Z</time>
      </trkpt>
      <trkpt lat="45.15429" lon="6.19631">
        <ele>2350.8757</ele>
        <time>2012-06-03T11:51:26Z</time>
      </trkpt>
      <trkpt lat="45.15411" lon="6.19635">
        <ele>2354.4468</ele>
        <time>2012-06-03T11:51:51Z</time>
      </trkpt>
      <trkpt lat="45.15392" lon="6.1963">
        <ele>2360.062</ele>
        <time>2012-06-03T11:52:20Z</time>
      </trkpt>
      <trkpt lat="45.15374" lon="6.19636">
        <ele>2361.0945</ele>
        <time>2012-06-03T11:52:40Z</time>
      </trkpt>
      <trkpt lat="45.15356" lon="6.19632">
        <ele>2365.4622</ele>
        <time>2012-06-03T11:53:04Z</time>
      </trkpt>
      <trkpt lat="45.15338" lon="6.1963">
        <ele>2367.8813</ele>
        <time>2012-06-03T11:53:29Z</time>
      </trkpt>
      <trkpt lat="45.1532" lon="6.19635">
        <ele>2370.1963</ele>
        <time>2012-06-03T11:53:56Z</time>
      </trkpt>
      <trkpt lat="45.15302" lon="6.19639">
        <ele>2372.7476</ele>
        <time>2012-06-03T11:54:49Z</time>
      </trkpt>
      <trkpt lat="45.15285" lon="6.19648">
        <ele>2375.2944</ele>
        <time>2012-06-03T11:56:10Z</time>
      </trkpt>
      <trkpt lat="45.15271" lon="6.19666">
        <ele>2377.9746</ele>
        <time>2012-06-03T12:00:12Z</time>
      </trkpt>
      <trkpt lat="45.15254" lon="6.19677">
        <ele>2379.7546</ele>
        <time>2012-06-03T12:00:33Z</time>
      </trkpt>
      <trkpt lat="45.15239" lon="6.1969">
        <ele>2380.4773</ele>
        <time>2012-06-03T12:00:51Z</time>
      </trkpt>
      <trkpt lat="45.15221" lon="6.19699">
        <ele>2383.1375</ele>
        <time>2012-06-03T12:01:15Z</time>
      </trkpt>
      <trkpt lat="45.15204" lon="6.19705">
        <ele>2388.8093</ele>
        <time>2012-06-03T12:01:49Z</time>
      </trkpt>
      <trkpt lat="45.15186" lon="6.19708">
        <ele>2394.252</ele>
        <time>2012-06-03T12:02:25Z</time>
      </trkpt>
      <trkpt lat="45.15168" lon="6.19702">
        <ele>2402.2861</ele>
        <time>2012-06-03T12:03:32Z</time>
      </trkpt>
      <trkpt lat="45.15157" lon="6.19681">
        <ele>2414.6877</ele>
        <time>2012-06-03T12:05:04Z</time>
      </trkpt>
      <trkpt lat="45.15142" lon="6.19667">
        <ele>2419.9758</ele>
        <time>2012-06-03T12:05:40Z</time>
      </trkpt>
      <trkpt lat="45.15124" lon="6.19664">
        <ele>2425.201</ele>
        <time>2012-06-03T12:06:16Z</time>
      </trkpt>
      <trkpt lat="45.15125" lon="6.19638">
        <ele>2439.1057</ele>
        <time>2012-06-03T12:08:04Z</time>
      </trkpt>
      <trkpt lat="45.15113" lon="6.1962">
        <ele>2451.147</ele>
        <time>2012-06-03T12:09:39Z</time>
      </trkpt>
      <trkpt lat="45.15125" lon="6.196">
        <ele>2462.7673</ele>
        <time>2012-06-03T12:11:01Z</time>
      </trkpt>
      <trkpt lat="45.1511" lon="6.19587">
        <ele>2470.5874</ele>
        <time>2012-06-03T12:11:56Z</time>
      </trkpt>
      <trkpt lat="45.15097" lon="6.19569">
        <ele>2476.761</ele>
        <time>2012-06-03T12:12:36Z</time>
      </trkpt>
      <trkpt lat="45.15079" lon="6.19563">
        <ele>2477.5198</ele>
        <time>2012-06-03T12:14:48Z</time>
      </trkpt>
      <trkpt lat="45.1506" lon="6.19556">
        <ele>2476.5</ele>
        <time>2012-06-03T12:15:47Z</time>
      </trkpt>
      <trkpt lat="45.15041" lon="6.19547">
        <ele>2475.2253</ele>
        <time>2012-06-03T12:15:54Z</time>
      </trkpt>
      <trkpt lat="45.15023" lon="6.19539">
        <ele>2473.77</ele>
        <time>2012-06-03T12:15:59Z</time>
      </trkpt>
      <trkpt lat="45.15005" lon="6.19523">
        <ele>2472.365</ele>
        <time>2012-06-03T12:16:06Z</time>
      </trkpt>
      <trkpt lat="45.14988" lon="6.19509">
        <ele>2471.052</ele>
        <time>2012-06-03T12:16:12Z</time>
      </trkpt>
      <trkpt lat="45.1497" lon="6.19494">
        <ele>2469.4314</ele>
        <time>2012-06-03T12:16:18Z</time>
      </trkpt>
      <trkpt lat="45.14952" lon="6.19484">
        <ele>2467.3213</ele>
        <time>2012-06-03T12:16:27Z</time>
      </trkpt>
      <trkpt lat="45.14934" lon="6.19484">
        <ele>2465.4063</ele>
        <time>2012-06-03T12:16:47Z</time>
      </trkpt>
      <trkpt lat="45.14916" lon="6.1947">
        <ele>2465.4368</ele>
        <time>2012-06-03T12:18:17Z</time>
      </trkpt>
      <trkpt lat="45.14898" lon="6.19461">
        <ele>2465.2278</ele>
        <time>2012-06-03T12:18:24Z</time>
      </trkpt>
      <trkpt lat="45.14881" lon="6.19452">
        <ele>2464.8245</ele>
        <time>2012-06-03T12:18:31Z</time>
      </trkpt>
      <trkpt lat="45.14864" lon="6.19442">
        <ele>2464.6497</ele>
        <time>2012-06-03T12:18:39Z</time>
      </trkpt>
      <trkpt lat="45.14846" lon="6.19431">
        <ele>2464.36</ele>
        <time>2012-06-03T12:18:48Z</time>
      </trkpt>
      <trkpt lat="45.14829" lon="6.19422">
        <ele>2463.351</ele>
        <time>2012-06-03T12:19:03Z</time>
      </trkpt>
      <trkpt lat="45.14811" lon="6.19416">
        <ele>2462.3994</ele>
        <time>2012-06-03T12:19:20Z</time>
      </trkpt>
      <trkpt lat="45.14792" lon="6.19407">
        <ele>2462.073</ele>
        <time>2012-06-03T12:19:28Z</time>
      </trkpt>
      <trkpt lat="45.14774" lon="6.19401">
        <ele>2460.9424</ele>
        <time>2012-06-03T12:19:36Z</time>
      </trkpt>
      <trkpt lat="45.14757" lon="6.1939">
        <ele>2459.6614</ele>
        <time>2012-06-03T12:19:55Z</time>
      </trkpt>
      <trkpt lat="45.14739" lon="6.19384">
        <ele>2459.0732</ele>
        <time>2012-06-03T12:20:12Z</time>
      </trkpt>
      <trkpt lat="45.14721" lon="6.19382">
        <ele>2458.1467</ele>
        <time>2012-06-03T12:20:28Z</time>
      </trkpt>
      <trkpt lat="45.14702" lon="6.19382">
        <ele>2456.58</ele>
        <time>2012-06-03T12:20:40Z</time>
      </trkpt>
      <trkpt lat="45.14684" lon="6.19377">
        <ele>2454.5522</ele>
        <time>2012-06-03T12:20:54Z</time>
      </trkpt>
      <trkpt lat="45.14665" lon="6.19376">
        <ele>2452.8462</ele>
        <time>2012-06-03T12:21:14Z</time>
      </trkpt>
      <trkpt lat="45.14646" lon="6.19374">
        <ele>2451.652</ele>
        <time>2012-06-03T12:21:21Z</time>
      </trkpt>
      <trkpt lat="45.14628" lon="6.19375">
        <ele>2450.1733</ele>
        <time>2012-06-03T12:21:27Z</time>
      </trkpt>
      <trkpt lat="45.14609" lon="6.19374">
        <ele>2447.785</ele>
        <time>2012-06-03T12:21:33Z</time>
      </trkpt>
      <trkpt lat="45.1459" lon="6.19375">
        <ele>2444.8232</ele>
        <time>2012-06-03T12:21:43Z</time>
      </trkpt>
      <trkpt lat="45.14571" lon="6.19374">
        <ele>2442.6296</ele>
        <time>2012-06-03T12:21:51Z</time>
      </trkpt>
      <trkpt lat="45.14553" lon="6.19363">
        <ele>2440.1438</ele>
        <time>2012-06-03T12:22:02Z</time>
      </trkpt>
      <trkpt lat="45.14537" lon="6.19352">
        <ele>2438.652</ele>
        <time>2012-06-03T12:22:11Z</time>
      </trkpt>
      <trkpt lat="45.14522" lon="6.19335">
        <ele>2437.103</ele>
        <time>2012-06-03T12:22:20Z</time>
      </trkpt>
      <trkpt lat="45.14508" lon="6.19315">
        <ele>2435.3782</ele>
        <time>2012-06-03T12:22:28Z</time>
      </trkpt>
      <trkpt lat="45.14494" lon="6.19299">
        <ele>2433.6135</ele>
        <time>2012-06-03T12:22:35Z</time>
      </trkpt>
      <trkpt lat="45.1448" lon="6.19281">
        <ele>2431.354</ele>
        <time>2012-06-03T12:22:43Z</time>
      </trkpt>
      <trkpt lat="45.14466" lon="6.19261">
        <ele>2428.7227</ele>
        <time>2012-06-03T12:22:50Z</time>
      </trkpt>
      <trkpt lat="45.14452" lon="6.19242">
        <ele>2426.2273</ele>
        <time>2012-06-03T12:22:57Z</time>
      </trkpt>
      <trkpt lat="45.14436" lon="6.19225">
        <ele>2423.5654</ele>
        <time>2012-06-03T12:23:05Z</time>
      </trkpt>
      <trkpt lat="45.14421" lon="6.19208">
        <ele>2421.8518</ele>
        <time>2012-06-03T12:23:11Z</time>
      </trkpt>
      <trkpt lat="45.14409" lon="6.19184">
        <ele>2419.9272</ele>
        <time>2012-06-03T12:23:16Z</time>
      </trkpt>
      <trkpt lat="45.14398" lon="6.19161">
        <ele>2417.6235</ele>
        <time>2012-06-03T12:23:21Z</time>
      </trkpt>
      <trkpt lat="45.14389" lon="6.19138">
        <ele>2413.1172</ele>
        <time>2012-06-03T12:23:53Z</time>
      </trkpt>
      <trkpt lat="45.1438" lon="6.19111">
        <ele>2410.5833</ele>
        <time>2012-06-03T12:24:01Z</time>
      </trkpt>
      <trkpt lat="45.14372" lon="6.19085">
        <ele>2406.8223</ele>
        <time>2012-06-03T12:24:07Z</time>
      </trkpt>
      <trkpt lat="45.14361" lon="6.1906">
        <ele>2402.5693</ele>
        <time>2012-06-03T12:24:13Z</time>
      </trkpt>
      <trkpt lat="45.14345" lon="6.1904">
        <ele>2398.3022</ele>
        <time>2012-06-03T12:24:19Z</time>
      </trkpt>
      <trkpt lat="45.14329" lon="6.19027">
        <ele>2394.5964</ele>
        <time>2012-06-03T12:24:24Z</time>
      </trkpt>
      <trkpt lat="45.1431" lon="6.19012">
        <ele>2390.066</ele>
        <time>2012-06-03T12:24:30Z</time>
      </trkpt>
      <trkpt lat="45.14293" lon="6.19002">
        <ele>2385.7148</ele>
        <time>2012-06-03T12:24:35Z</time>
      </trkpt>
      <trkpt lat="45.14274" lon="6.18994">
        <ele>2381.082</ele>
        <time>2012-06-03T12:24:40Z</time>
      </trkpt>
      <trkpt lat="45.14255" lon="6.18992">
        <ele>2375.8296</ele>
        <time>2012-06-03T12:24:47Z</time>
      </trkpt>
      <trkpt lat="45.14237" lon="6.18978">
        <ele>2369.8687</ele>
        <time>2012-06-03T12:24:54Z</time>
      </trkpt>
      <trkpt lat="45.1422" lon="6.18965">
        <ele>2364.0996</ele>
        <time>2012-06-03T12:25:02Z</time>
      </trkpt>
      <trkpt lat="45.14205" lon="6.18949">
        <ele>2359.1045</ele>
        <time>2012-06-03T12:25:28Z</time>
      </trkpt>
      <trkpt lat="45.14206" lon="6.18924">
        <ele>2359.639</ele>
        <time>2012-06-03T12:26:33Z</time>
      </trkpt>
      <trkpt lat="45.1419" lon="6.18904">
        <ele>2357.9773</ele>
        <time>2012-06-03T12:26:58Z</time>
      </trkpt>
      <trkpt lat="45.14177" lon="6.18885">
        <ele>2356.0408</ele>
        <time>2012-06-03T12:27:04Z</time>
      </trkpt>
      <trkpt lat="45.14175" lon="6.18858">
        <ele>2353.4846</ele>
        <time>2012-06-03T12:27:25Z</time>
      </trkpt>
      <trkpt lat="45.14166" lon="6.18836">
        <ele>2353.3953</ele>
        <time>2012-06-03T12:27:58Z</time>
      </trkpt>
      <trkpt lat="45.14154" lon="6.18815">
        <ele>2352.2537</ele>
        <time>2012-06-03T12:28:04Z</time>
      </trkpt>
      <trkpt lat="45.14143" lon="6.18793">
        <ele>2349.8542</ele>
        <time>2012-06-03T12:28:09Z</time>
      </trkpt>
      <trkpt lat="45.14143" lon="6.18766">
        <ele>2346.289</ele>
        <time>2012-06-03T12:28:16Z</time>
      </trkpt>
      <trkpt lat="45.14159" lon="6.18753">
        <ele>2339.1907</ele>
        <time>2012-06-03T12:28:33Z</time>
      </trkpt>
      <trkpt lat="45.14155" lon="6.18728">
        <ele>2338.482</ele>
        <time>2012-06-03T12:29:02Z</time>
      </trkpt>
      <trkpt lat="45.1414" lon="6.18713">
        <ele>2339.3467</ele>
        <time>2012-06-03T12:29:27Z</time>
      </trkpt>
      <trkpt lat="45.14125" lon="6.18697">
        <ele>2340.4858</ele>
        <time>2012-06-03T12:29:52Z</time>
      </trkpt>
      <trkpt lat="45.1411" lon="6.18682">
        <ele>2340.3308</ele>
        <time>2012-06-03T12:30:23Z</time>
      </trkpt>
      <trkpt lat="45.14091" lon="6.18677">
        <ele>2336.852</ele>
        <time>2012-06-03T12:30:32Z</time>
      </trkpt>
      <trkpt lat="45.14072" lon="6.18671">
        <ele>2333.301</ele>
        <time>2012-06-03T12:30:39Z</time>
      </trkpt>
      <trkpt lat="45.14055" lon="6.18664">
        <ele>2328.975</ele>
        <time>2012-06-03T12:31:07Z</time>
      </trkpt>
      <trkpt lat="45.14038" lon="6.18656">
        <ele>2324.2446</ele>
        <time>2012-06-03T12:31:14Z</time>
      </trkpt>
      <trkpt lat="45.14019" lon="6.1865">
        <ele>2317.905</ele>
        <time>2012-06-03T12:31:22Z</time>
      </trkpt>
      <trkpt lat="45.14001" lon="6.18647">
        <ele>2311.8975</ele>
        <time>2012-06-03T12:31:31Z</time>
      </trkpt>
      <trkpt lat="45.14006" lon="6.1862">
        <ele>2306.921</ele>
        <time>2012-06-03T12:31:38Z</time>
      </trkpt>
      <trkpt lat="45.1401" lon="6.1859">
        <ele>2301.6191</ele>
        <time>2012-06-03T12:31:45Z</time>
      </trkpt>
      <trkpt lat="45.14008" lon="6.18561">
        <ele>2298.112</ele>
        <time>2012-06-03T12:31:51Z</time>
      </trkpt>
      <trkpt lat="45.14009" lon="6.18533">
        <ele>2295.0242</ele>
        <time>2012-06-03T12:31:59Z</time>
      </trkpt>
      <trkpt lat="45.14019" lon="6.18511">
        <ele>2290.6558</ele>
        <time>2012-06-03T12:32:07Z</time>
      </trkpt>
      <trkpt lat="45.14025" lon="6.18484">
        <ele>2288.182</ele>
        <time>2012-06-03T12:32:22Z</time>
      </trkpt>
      <trkpt lat="45.14033" lon="6.1846">
        <ele>2284.124</ele>
        <time>2012-06-03T12:32:28Z</time>
      </trkpt>
      <trkpt lat="45.14041" lon="6.18437">
        <ele>2277.9128</ele>
        <time>2012-06-03T12:32:42Z</time>
      </trkpt>
      <trkpt lat="45.14043" lon="6.18409">
        <ele>2270.4038</ele>
        <time>2012-06-03T12:33:05Z</time>
      </trkpt>
      <trkpt lat="45.14057" lon="6.18392">
        <ele>2266.2659</ele>
        <time>2012-06-03T12:33:12Z</time>
      </trkpt>
      <trkpt lat="45.14055" lon="6.18366">
        <ele>2258.603</ele>
        <time>2012-06-03T12:34:08Z</time>
      </trkpt>
      <trkpt lat="45.14064" lon="6.18344">
        <ele>2247.617</ele>
        <time>2012-06-03T12:34:43Z</time>
      </trkpt>
      <trkpt lat="45.14081" lon="6.18335">
        <ele>2251.979</ele>
        <time>2012-06-03T12:35:26Z</time>
      </trkpt>
      <trkpt lat="45.14093" lon="6.18315">
        <ele>2254.9263</ele>
        <time>2012-06-03T12:36:25Z</time>
      </trkpt>
      <trkpt lat="45.14101" lon="6.18292">
        <ele>2254.1228</ele>
        <time>2012-06-03T12:36:30Z</time>
      </trkpt>
      <trkpt lat="45.14112" lon="6.1827">
        <ele>2252.1226</ele>
        <time>2012-06-03T12:36:37Z</time>
      </trkpt>
      <trkpt lat="45.1411" lon="6.18244">
        <ele>2247.6587</ele>
        <time>2012-06-03T12:36:49Z</time>
      </trkpt>
      <trkpt lat="45.14113" lon="6.18217">
        <ele>2241.6191</ele>
        <time>2012-06-03T12:36:59Z</time>
      </trkpt>
      <trkpt lat="45.14115" lon="6.1819">
        <ele>2234.6274</ele>
        <time>2012-06-03T12:37:08Z</time>
      </trkpt>
      <trkpt lat="45.14102" lon="6.1817">
        <ele>2226.27</ele>
        <time>2012-06-03T12:37:25Z</time>
      </trkpt>
      <trkpt lat="45.14086" lon="6.18183">
        <ele>2221.7288</ele>
        <time>2012-06-03T12:37:34Z</time>
      </trkpt>
      <trkpt lat="45.14068" lon="6.18186">
        <ele>2213.069</ele>
        <time>2012-06-03T12:38:16Z</time>
      </trkpt>
      <trkpt lat="45.1405" lon="6.18192">
        <ele>2209.1016</ele>
        <time>2012-06-03T12:38:32Z</time>
      </trkpt>
      <trkpt lat="45.14033" lon="6.18204">
        <ele>2203.2327</ele>
        <time>2012-06-03T12:38:59Z</time>
      </trkpt>
      <trkpt lat="45.14015" lon="6.18207">
        <ele>2200.5615</ele>
        <time>2012-06-03T12:39:23Z</time>
      </trkpt>
      <trkpt lat="45.13997" lon="6.18211">
        <ele>2193.9463</ele>
        <time>2012-06-03T12:39:47Z</time>
      </trkpt>
      <trkpt lat="45.13981" lon="6.18196">
        <ele>2186.704</ele>
        <time>2012-06-03T12:40:16Z</time>
      </trkpt>
      <trkpt lat="45.13963" lon="6.18192">
        <ele>2178.369</ele>
        <time>2012-06-03T12:40:36Z</time>
      </trkpt>
      <trkpt lat="45.13969" lon="6.18167">
        <ele>2173.94</ele>
        <time>2012-06-03T12:40:45Z</time>
      </trkpt>
      <trkpt lat="45.13975" lon="6.1814">
        <ele>2171.326</ele>
        <time>2012-06-03T12:40:54Z</time>
      </trkpt>
      <trkpt lat="45.13958" lon="6.18129">
        <ele>2162.1123</ele>
        <time>2012-06-03T12:41:24Z</time>
      </trkpt>
      <trkpt lat="45.13939" lon="6.18134">
        <ele>2157.404</ele>
        <time>2012-06-03T12:41:47Z</time>
      </trkpt>
      <trkpt lat="45.13922" lon="6.18138">
        <ele>2153.2434</ele>
        <time>2012-06-03T12:41:55Z</time>
      </trkpt>
      <trkpt lat="45.13903" lon="6.18143">
        <ele>2145.8738</ele>
        <time>2012-06-03T12:42:18Z</time>
      </trkpt>
      <trkpt lat="45.13886" lon="6.1815">
        <ele>2141.0603</ele>
        <time>2012-06-03T12:42:35Z</time>
      </trkpt>
      <trkpt lat="45.13868" lon="6.18161">
        <ele>2135.7349</ele>
        <time>2012-06-03T12:43:22Z</time>
      </trkpt>
      <trkpt lat="45.13851" lon="6.18169">
        <ele>2131.182</ele>
        <time>2012-06-03T12:43:42Z</time>
      </trkpt>
      <trkpt lat="45.13833" lon="6.18181">
        <ele>2127.9453</ele>
        <time>2012-06-03T12:43:56Z</time>
      </trkpt>
      <trkpt lat="45.13815" lon="6.18186">
        <ele>2123.706</ele>
        <time>2012-06-03T12:44:11Z</time>
      </trkpt>
      <trkpt lat="45.13797" lon="6.18195">
        <ele>2120.8076</ele>
        <time>2012-06-03T12:44:24Z</time>
      </trkpt>
      <trkpt lat="45.13779" lon="6.18203">
        <ele>2117.8562</ele>
        <time>2012-06-03T12:44:35Z</time>
      </trkpt>
      <trkpt lat="45.13762" lon="6.18213">
        <ele>2114.888</ele>
        <time>2012-06-03T12:44:48Z</time>
      </trkpt>
      <trkpt lat="45.13743" lon="6.18218">
        <ele>2110.6968</ele>
        <time>2012-06-03T12:45:11Z</time>
      </trkpt>
      <trkpt lat="45.13725" lon="6.18225">
        <ele>2107.432</ele>
        <time>2012-06-03T12:45:21Z</time>
      </trkpt>
      <trkpt lat="45.13707" lon="6.18234">
        <ele>2102.0647</ele>
        <time>2012-06-03T12:45:47Z</time>
      </trkpt>
      <trkpt lat="45.13691" lon="6.18246">
        <ele>2097.898</ele>
        <time>2012-06-03T12:46:04Z</time>
      </trkpt>
      <trkpt lat="45.13674" lon="6.18257">
        <ele>2094.6775</ele>
        <time>2012-06-03T12:46:23Z</time>
      </trkpt>
      <trkpt lat="45.13674" lon="6.18231">
        <ele>2090.007</ele>
        <time>2012-06-03T12:46:49Z</time>
      </trkpt>
      <trkpt lat="45.13667" lon="6.18208">
        <ele>2082.1597</ele>
        <time>2012-06-03T12:47:33Z</time>
      </trkpt>
      <trkpt lat="45.1365" lon="6.18195">
        <ele>2075.47</ele>
        <time>2012-06-03T12:47:56Z</time>
      </trkpt>
      <trkpt lat="45.13634" lon="6.18181">
        <ele>2068.7183</ele>
        <time>2012-06-03T12:48:22Z</time>
      </trkpt>
      <trkpt lat="45.13619" lon="6.18168">
        <ele>2060.4668</ele>
        <time>2012-06-03T12:49:11Z</time>
      </trkpt>
      <trkpt lat="45.13598" lon="6.18167">
        <ele>2058.2776</ele>
        <time>2012-06-03T12:49:25Z</time>
      </trkpt>
      <trkpt lat="45.13582" lon="6.18156">
        <ele>2054.8796</ele>
        <time>2012-06-03T12:49:35Z</time>
      </trkpt>
      <trkpt lat="45.13565" lon="6.18146">
        <ele>2051.7605</ele>
        <time>2012-06-03T12:49:45Z</time>
      </trkpt>
      <trkpt lat="45.13549" lon="6.18132">
        <ele>2047.3494</ele>
        <time>2012-06-03T12:50:47Z</time>
      </trkpt>
      <trkpt lat="45.1354" lon="6.18107">
        <ele>2044.8785</ele>
        <time>2012-06-03T12:51:41Z</time>
      </trkpt>
      <trkpt lat="45.1353" lon="6.18085">
        <ele>2042.4556</ele>
        <time>2012-06-03T12:51:47Z</time>
      </trkpt>
      <trkpt lat="45.13514" lon="6.18068">
        <ele>2038.9752</ele>
        <time>2012-06-03T12:51:54Z</time>
      </trkpt>
      <trkpt lat="45.1351" lon="6.18041">
        <ele>2036.5194</ele>
        <time>2012-06-03T12:52:00Z</time>
      </trkpt>
      <trkpt lat="45.13504" lon="6.18014">
        <ele>2034.0084</ele>
        <time>2012-06-03T12:52:08Z</time>
      </trkpt>
      <trkpt lat="45.13519" lon="6.18001">
        <ele>2033.7665</ele>
        <time>2012-06-03T12:53:31Z</time>
      </trkpt>
      <trkpt lat="45.13509" lon="6.17979">
        <ele>2035.5581</ele>
        <time>2012-06-03T12:56:36Z</time>
      </trkpt>
      <trkpt lat="45.13504" lon="6.17955">
        <ele>2033.6398</ele>
        <time>2012-06-03T12:56:48Z</time>
      </trkpt>
      <trkpt lat="45.13517" lon="6.17934">
        <ele>2032.4302</ele>
        <time>2012-06-03T12:57:44Z</time>
      </trkpt>
      <trkpt lat="45.13498" lon="6.17936">
        <ele>2032.9708</ele>
        <time>2012-06-03T12:58:12Z</time>
      </trkpt>
      <trkpt lat="45.1348" lon="6.17943">
        <ele>2031.439</ele>
        <time>2012-06-03T12:58:37Z</time>
      </trkpt>
      <trkpt lat="45.13462" lon="6.17945">
        <ele>2031.8699</ele>
        <time>2012-06-03T12:59:00Z</time>
      </trkpt>
      <trkpt lat="45.13444" lon="6.17942">
        <ele>2031.4941</ele>
        <time>2012-06-03T12:59:07Z</time>
      </trkpt>
      <trkpt lat="45.13427" lon="6.17932">
        <ele>2031.6543</ele>
        <time>2012-06-03T12:59:15Z</time>
      </trkpt>
      <trkpt lat="45.1341" lon="6.17923">
        <ele>2030.5563</ele>
        <time>2012-06-03T12:59:21Z</time>
      </trkpt>
      <trkpt lat="45.13392" lon="6.17917">
        <ele>2028.7283</ele>
        <time>2012-06-03T12:59:31Z</time>
      </trkpt>
      <trkpt lat="45.13373" lon="6.17915">
        <ele>2027.3033</ele>
        <time>2012-06-03T12:59:40Z</time>
      </trkpt>
      <trkpt lat="45.13355" lon="6.17911">
        <ele>2026.0956</ele>
        <time>2012-06-03T12:59:58Z</time>
      </trkpt>
      <trkpt lat="45.13347" lon="6.17888">
        <ele>2026.8063</ele>
        <time>2012-06-03T13:00:15Z</time>
      </trkpt>
      <trkpt lat="45.13335" lon="6.17867">
        <ele>2026.9661</ele>
        <time>2012-06-03T13:00:32Z</time>
      </trkpt>
      <trkpt lat="45.13325" lon="6.17845">
        <ele>2027.2714</ele>
        <time>2012-06-03T13:00:52Z</time>
      </trkpt>
      <trkpt lat="45.13306" lon="6.17843">
        <ele>2025.0337</ele>
        <time>2012-06-03T13:01:11Z</time>
      </trkpt>
      <trkpt lat="45.13288" lon="6.17849">
        <ele>2023.6525</ele>
        <time>2012-06-03T13:01:30Z</time>
      </trkpt>
      <trkpt lat="45.13269" lon="6.17849">
        <ele>2023.1879</ele>
        <time>2012-06-03T13:01:57Z</time>
      </trkpt>
      <trkpt lat="45.13253" lon="6.17861">
        <ele>2021.6298</ele>
        <time>2012-06-03T13:02:19Z</time>
      </trkpt>
      <trkpt lat="45.13243" lon="6.17883">
        <ele>2018.2324</ele>
        <time>2012-06-03T13:02:37Z</time>
      </trkpt>
      <trkpt lat="45.13226" lon="6.17893">
        <ele>2015.7133</ele>
        <time>2012-06-03T13:02:59Z</time>
      </trkpt>
      <trkpt lat="45.13207" lon="6.17894">
        <ele>2014.2222</ele>
        <time>2012-06-03T13:03:09Z</time>
      </trkpt>
      <trkpt lat="45.13188" lon="6.17891">
        <ele>2012.1981</ele>
        <time>2012-06-03T13:03:26Z</time>
      </trkpt>
      <trkpt lat="45.1317" lon="6.17887">
        <ele>2009.152</ele>
        <time>2012-06-03T13:03:50Z</time>
      </trkpt>
      <trkpt lat="45.13152" lon="6.1789">
        <ele>2008.1038</ele>
        <time>2012-06-03T13:04:01Z</time>
      </trkpt>
      <trkpt lat="45.13134" lon="6.17894">
        <ele>2006.0725</ele>
        <time>2012-06-03T13:04:18Z</time>
      </trkpt>
      <trkpt lat="45.13117" lon="6.17903">
        <ele>2003.9922</ele>
        <time>2012-06-03T13:04:35Z</time>
      </trkpt>
      <trkpt lat="45.13098" lon="6.179">
        <ele>2001.9884</ele>
        <time>2012-06-03T13:04:57Z</time>
      </trkpt>
      <trkpt lat="45.1308" lon="6.17893">
        <ele>2001.0775</ele>
        <time>2012-06-03T13:05:14Z</time>
      </trkpt>
      <trkpt lat="45.13061" lon="6.1789">
        <ele>2001.0186</ele>
        <time>2012-06-03T13:05:22Z</time>
      </trkpt>
      <trkpt lat="45.13042" lon="6.17889">
        <ele>2000.7075</ele>
        <time>2012-06-03T13:05:39Z</time>
      </trkpt>
      <trkpt lat="45.13024" lon="6.17884">
        <ele>2000.059</ele>
        <time>2012-06-03T13:05:52Z</time>
      </trkpt>
      <trkpt lat="45.13005" lon="6.17882">
        <ele>1999.4839</ele>
        <time>2012-06-03T13:06:04Z</time>
      </trkpt>
      <trkpt lat="45.12986" lon="6.17887">
        <ele>1998.8638</ele>
        <time>2012-06-03T13:06:12Z</time>
      </trkpt>
      <trkpt lat="45.12967" lon="6.17887">
        <ele>1998.0945</ele>
        <time>2012-06-03T13:06:18Z</time>
      </trkpt>
      <trkpt lat="45.12949" lon="6.17882">
        <ele>1997.6252</ele>
        <time>2012-06-03T13:06:25Z</time>
      </trkpt>
      <trkpt lat="45.12931" lon="6.17877">
        <ele>1997.5522</ele>
        <time>2012-06-03T13:06:32Z</time>
      </trkpt>
      <trkpt lat="45.12911" lon="6.17871">
        <ele>1997.6243</ele>
        <time>2012-06-03T13:06:40Z</time>
      </trkpt>
      <trkpt lat="45.12891" lon="6.17862">
        <ele>1997.1194</ele>
        <time>2012-06-03T13:06:48Z</time>
      </trkpt>
      <trkpt lat="45.12871" lon="6.17855">
        <ele>1996.3284</ele>
        <time>2012-06-03T13:06:54Z</time>
      </trkpt>
      <trkpt lat="45.12853" lon="6.17841">
        <ele>1995.1776</ele>
        <time>2012-06-03T13:07:00Z</time>
      </trkpt>
      <trkpt lat="45.12836" lon="6.17824">
        <ele>1994.1396</ele>
        <time>2012-06-03T13:07:08Z</time>
      </trkpt>
      <trkpt lat="45.12818" lon="6.17811">
        <ele>1992.8743</ele>
        <time>2012-06-03T13:07:14Z</time>
      </trkpt>
      <trkpt lat="45.12801" lon="6.178">
        <ele>1991.2617</ele>
        <time>2012-06-03T13:07:18Z</time>
      </trkpt>
      <trkpt lat="45.12784" lon="6.17787">
        <ele>1989.3394</ele>
        <time>2012-06-03T13:07:25Z</time>
      </trkpt>
      <trkpt lat="45.12765" lon="6.17786">
        <ele>1987.6864</ele>
        <time>2012-06-03T13:07:34Z</time>
      </trkpt>
      <trkpt lat="45.12756" lon="6.17761">
        <ele>1986.6832</ele>
        <time>2012-06-03T13:07:42Z</time>
      </trkpt>
      <trkpt lat="45.12739" lon="6.17744">
        <ele>1986.0311</ele>
        <time>2012-06-03T13:07:49Z</time>
      </trkpt>
      <trkpt lat="45.12724" lon="6.1773">
        <ele>1985.5161</ele>
        <time>2012-06-03T13:07:55Z</time>
      </trkpt>
      <trkpt lat="45.12708" lon="6.17714">
        <ele>1984.9843</ele>
        <time>2012-06-03T13:08:02Z</time>
      </trkpt>
      <trkpt lat="45.12694" lon="6.17697">
        <ele>1983.99</ele>
        <time>2012-06-03T13:08:10Z</time>
      </trkpt>
      <trkpt lat="45.12674" lon="6.17695">
        <ele>1984.1263</ele>
        <time>2012-06-03T13:08:20Z</time>
      </trkpt>
      <trkpt lat="45.12655" lon="6.17692">
        <ele>1984.7546</ele>
        <time>2012-06-03T13:08:31Z</time>
      </trkpt>
      <trkpt lat="45.12638" lon="6.17682">
        <ele>1984.9486</ele>
        <time>2012-06-03T13:08:39Z</time>
      </trkpt>
      <trkpt lat="45.12622" lon="6.1767">
        <ele>1984.1271</ele>
        <time>2012-06-03T13:08:46Z</time>
      </trkpt>
      <trkpt lat="45.12606" lon="6.17659">
        <ele>1983.1261</ele>
        <time>2012-06-03T13:08:53Z</time>
      </trkpt>
      <trkpt lat="45.12588" lon="6.17647">
        <ele>1981.3728</ele>
        <time>2012-06-03T13:09:01Z</time>
      </trkpt>
      <trkpt lat="45.12571" lon="6.17636">
        <ele>1979.4696</ele>
        <time>2012-06-03T13:09:11Z</time>
      </trkpt>
      <trkpt lat="45.12561" lon="6.17614">
        <ele>1978.7161</ele>
        <time>2012-06-03T13:09:18Z</time>
      </trkpt>
      <trkpt lat="45.12553" lon="6.17591">
        <ele>1978.5175</ele>
        <time>2012-06-03T13:09:33Z</time>
      </trkpt>
      <trkpt lat="45.12535" lon="6.17589">
        <ele>1977.6045</ele>
        <time>2012-06-03T13:10:25Z</time>
      </trkpt>
      <trkpt lat="45.12516" lon="6.17593">
        <ele>1977.1365</ele>
        <time>2012-06-03T13:10:40Z</time>
      </trkpt>
      <trkpt lat="45.12498" lon="6.17595">
        <ele>1977.818</ele>
        <time>2012-06-03T13:11:03Z</time>
      </trkpt>
      <trkpt lat="45.12479" lon="6.17594">
        <ele>1974.2561</ele>
        <time>2012-06-03T13:11:27Z</time>
      </trkpt>
      <trkpt lat="45.12463" lon="6.17611">
        <ele>1973.0813</ele>
        <time>2012-06-03T13:11:36Z</time>
      </trkpt>
      <trkpt lat="45.12446" lon="6.17619">
        <ele>1973.7092</ele>
        <time>2012-06-03T13:11:47Z</time>
      </trkpt>
      <trkpt lat="45.12427" lon="6.17623">
        <ele>1974.6184</ele>
        <time>2012-06-03T13:11:58Z</time>
      </trkpt>
      <trkpt lat="45.12408" lon="6.17625">
        <ele>1974.7997</ele>
        <time>2012-06-03T13:12:08Z</time>
      </trkpt>
      <trkpt lat="45.1239" lon="6.17621">
        <ele>1974.7998</ele>
        <time>2012-06-03T13:12:20Z</time>
      </trkpt>
      <trkpt lat="45.12372" lon="6.17623">
        <ele>1974.9667</ele>
        <time>2012-06-03T13:12:48Z</time>
      </trkpt>
      <trkpt lat="45.12354" lon="6.17626">
        <ele>1976.0228</ele>
        <time>2012-06-03T13:12:58Z</time>
      </trkpt>
      <trkpt lat="45.12337" lon="6.17617">
        <ele>1976.9663</ele>
        <time>2012-06-03T13:13:07Z</time>
      </trkpt>
      <trkpt lat="45.12317" lon="6.17613">
        <ele>1978.4849</ele>
        <time>2012-06-03T13:13:18Z</time>
      </trkpt>
      <trkpt lat="45.12299" lon="6.17611">
        <ele>1978.8252</ele>
        <time>2012-06-03T13:13:26Z</time>
      </trkpt>
      <trkpt lat="45.12281" lon="6.17604">
        <ele>1978.1818</ele>
        <time>2012-06-03T13:13:33Z</time>
      </trkpt>
      <trkpt lat="45.12261" lon="6.17594">
        <ele>1977.4584</ele>
        <time>2012-06-03T13:13:40Z</time>
      </trkpt>
      <trkpt lat="45.12244" lon="6.17583">
        <ele>1978.1868</ele>
        <time>2012-06-03T13:13:48Z</time>
      </trkpt>
      <trkpt lat="45.12227" lon="6.17571">
        <ele>1978.0892</ele>
        <time>2012-06-03T13:13:55Z</time>
      </trkpt>
      <trkpt lat="45.1221" lon="6.17563">
        <ele>1977.0327</ele>
        <time>2012-06-03T13:14:01Z</time>
      </trkpt>
      <trkpt lat="45.12192" lon="6.17549">
        <ele>1975.6511</ele>
        <time>2012-06-03T13:14:07Z</time>
      </trkpt>
      <trkpt lat="45.12174" lon="6.1754">
        <ele>1973.7574</ele>
        <time>2012-06-03T13:14:15Z</time>
      </trkpt>
      <trkpt lat="45.12156" lon="6.17535">
        <ele>1972.5593</ele>
        <time>2012-06-03T13:14:25Z</time>
      </trkpt>
      <trkpt lat="45.12146" lon="6.17511">
        <ele>1973.6248</ele>
        <time>2012-06-03T13:14:54Z</time>
      </trkpt>
      <trkpt lat="45.12133" lon="6.17494">
        <ele>1969.295</ele>
        <time>2012-06-03T13:15:05Z</time>
      </trkpt>
      <trkpt lat="45.12118" lon="6.17475">
        <ele>1965.3713</ele>
        <time>2012-06-03T13:15:13Z</time>
      </trkpt>
      <trkpt lat="45.12103" lon="6.17456">
        <ele>1961.7394</ele>
        <time>2012-06-03T13:15:21Z</time>
      </trkpt>
      <trkpt lat="45.1209" lon="6.17432">
        <ele>1956.6646</ele>
        <time>2012-06-03T13:15:28Z</time>
      </trkpt>
      <trkpt lat="45.12076" lon="6.17414">
        <ele>1952.1945</ele>
        <time>2012-06-03T13:15:34Z</time>
      </trkpt>
      <trkpt lat="45.12058" lon="6.17414">
        <ele>1948.7269</ele>
        <time>2012-06-03T13:15:41Z</time>
      </trkpt>
      <trkpt lat="45.12043" lon="6.17399">
        <ele>1945.5201</ele>
        <time>2012-06-03T13:15:48Z</time>
      </trkpt>
      <trkpt lat="45.12038" lon="6.17371">
        <ele>1943.2172</ele>
        <time>2012-06-03T13:15:54Z</time>
      </trkpt>
      <trkpt lat="45.12019" lon="6.17366">
        <ele>1942.08</ele>
        <time>2012-06-03T13:16:03Z</time>
      </trkpt>
      <trkpt lat="45.12003" lon="6.17352">
        <ele>1935.3615</ele>
        <time>2012-06-03T13:16:29Z</time>
      </trkpt>
      <trkpt lat="45.11983" lon="6.17349">
        <ele>1933.8713</ele>
        <time>2012-06-03T13:16:38Z</time>
      </trkpt>
      <trkpt lat="45.11963" lon="6.17339">
        <ele>1931.8339</ele>
        <time>2012-06-03T13:16:45Z</time>
      </trkpt>
      <trkpt lat="45.11942" lon="6.17332">
        <ele>1929.6666</ele>
        <time>2012-06-03T13:16:51Z</time>
      </trkpt>
      <trkpt lat="45.1192" lon="6.17325">
        <ele>1927.3759</ele>
        <time>2012-06-03T13:16:56Z</time>
      </trkpt>
      <trkpt lat="45.11902" lon="6.1732">
        <ele>1924.9755</ele>
        <time>2012-06-03T13:17:01Z</time>
      </trkpt>
      <trkpt lat="45.11884" lon="6.17311">
        <ele>1922.32</ele>
        <time>2012-06-03T13:17:17Z</time>
      </trkpt>
      <trkpt lat="45.11866" lon="6.17305">
        <ele>1920.2137</ele>
        <time>2012-06-03T13:17:34Z</time>
      </trkpt>
      <trkpt lat="45.11847" lon="6.17305">
        <ele>1914.185</ele>
        <time>2012-06-03T13:18:01Z</time>
      </trkpt>
      <trkpt lat="45.11825" lon="6.173">
        <ele>1912.5037</ele>
        <time>2012-06-03T13:18:14Z</time>
      </trkpt>
      <trkpt lat="45.11804" lon="6.17297">
        <ele>1911.4055</ele>
        <time>2012-06-03T13:18:19Z</time>
      </trkpt>
      <trkpt lat="45.11783" lon="6.17292">
        <ele>1909.4971</ele>
        <time>2012-06-03T13:18:25Z</time>
      </trkpt>
      <trkpt lat="45.11762" lon="6.17282">
        <ele>1906.8998</ele>
        <time>2012-06-03T13:18:31Z</time>
      </trkpt>
      <trkpt lat="45.11742" lon="6.17271">
        <ele>1904.9299</ele>
        <time>2012-06-03T13:18:36Z</time>
      </trkpt>
      <trkpt lat="45.11722" lon="6.17269">
        <ele>1903.091</ele>
        <time>2012-06-03T13:18:41Z</time>
      </trkpt>
      <trkpt lat="45.11704" lon="6.17257">
        <ele>1901.4581</ele>
        <time>2012-06-03T13:18:46Z</time>
      </trkpt>
      <trkpt lat="45.11685" lon="6.17249">
        <ele>1899.5039</ele>
        <time>2012-06-03T13:18:51Z</time>
      </trkpt>
      <trkpt lat="45.11667" lon="6.17243">
        <ele>1897.5062</ele>
        <time>2012-06-03T13:18:56Z</time>
      </trkpt>
      <trkpt lat="45.11649" lon="6.17238">
        <ele>1895.6965</ele>
        <time>2012-06-03T13:19:02Z</time>
      </trkpt>
      <trkpt lat="45.11632" lon="6.17224">
        <ele>1893.8474</ele>
        <time>2012-06-03T13:19:09Z</time>
      </trkpt>
      <trkpt lat="45.1162" lon="6.17206">
        <ele>1891.1122</ele>
        <time>2012-06-03T13:19:24Z</time>
      </trkpt>
      <trkpt lat="45.11601" lon="6.17204">
        <ele>1891.2762</ele>
        <time>2012-06-03T13:19:43Z</time>
      </trkpt>
      <trkpt lat="45.11584" lon="6.17191">
        <ele>1890.3274</ele>
        <time>2012-06-03T13:19:50Z</time>
      </trkpt>
      <trkpt lat="45.11564" lon="6.17183">
        <ele>1889.7415</ele>
        <time>2012-06-03T13:19:58Z</time>
      </trkpt>
      <trkpt lat="45.11547" lon="6.17171">
        <ele>1888.2882</ele>
        <time>2012-06-03T13:20:06Z</time>
      </trkpt>
      <trkpt lat="45.11531" lon="6.17155">
        <ele>1888.5717</ele>
        <time>2012-06-03T13:20:14Z</time>
      </trkpt>
      <trkpt lat="45.11512" lon="6.17144">
        <ele>1889.6904</ele>
        <time>2012-06-03T13:20:22Z</time>
      </trkpt>
      <trkpt lat="45.11492" lon="6.1714">
        <ele>1889.2385</ele>
        <time>2012-06-03T13:20:29Z</time>
      </trkpt>
      <trkpt lat="45.11478" lon="6.17124">
        <ele>1885.595</ele>
        <time>2012-06-03T13:20:42Z</time>
      </trkpt>
      <trkpt lat="45.1146" lon="6.17115">
        <ele>1883.2585</ele>
        <time>2012-06-03T13:20:58Z</time>
      </trkpt>
      <trkpt lat="45.11442" lon="6.17107">
        <ele>1884.1216</ele>
        <time>2012-06-03T13:21:06Z</time>
      </trkpt>
      <trkpt lat="45.11422" lon="6.17105">
        <ele>1885.0859</ele>
        <time>2012-06-03T13:21:14Z</time>
      </trkpt>
      <trkpt lat="45.11403" lon="6.17098">
        <ele>1885.0763</ele>
        <time>2012-06-03T13:21:20Z</time>
      </trkpt>
      <trkpt lat="45.11386" lon="6.17089">
        <ele>1883.6685</ele>
        <time>2012-06-03T13:21:33Z</time>
      </trkpt>
      <trkpt lat="45.11368" lon="6.17081">
        <ele>1880.0441</ele>
        <time>2012-06-03T13:21:48Z</time>
      </trkpt>
      <trkpt lat="45.1135" lon="6.17069">
        <ele>1877.5781</ele>
        <time>2012-06-03T13:21:54Z</time>
      </trkpt>
      <trkpt lat="45.1133" lon="6.17067">
        <ele>1874.1796</ele>
        <time>2012-06-03T13:22:03Z</time>
      </trkpt>
      <trkpt lat="45.11311" lon="6.17058">
        <ele>1871.4858</ele>
        <time>2012-06-03T13:22:11Z</time>
      </trkpt>
      <trkpt lat="45.11295" lon="6.17046">
        <ele>1869.627</ele>
        <time>2012-06-03T13:22:17Z</time>
      </trkpt>
      <trkpt lat="45.11279" lon="6.17032">
        <ele>1868.0469</ele>
        <time>2012-06-03T13:22:23Z</time>
      </trkpt>
      <trkpt lat="45.11261" lon="6.17019">
        <ele>1866.3619</ele>
        <time>2012-06-03T13:22:29Z</time>
      </trkpt>
      <trkpt lat="45.11246" lon="6.17003">
        <ele>1863.3688</ele>
        <time>2012-06-03T13:22:42Z</time>
      </trkpt>
      <trkpt lat="45.11246" lon="6.16975">
        <ele>1861.5787</ele>
        <time>2012-06-03T13:23:01Z</time>
      </trkpt>
      <trkpt lat="45.11248" lon="6.16948">
        <ele>1860.4788</ele>
        <time>2012-06-03T13:23:09Z</time>
      </trkpt>
      <trkpt lat="45.11242" lon="6.16923">
        <ele>1857.2175</ele>
        <time>2012-06-03T13:23:17Z</time>
      </trkpt>
      <trkpt lat="45.11231" lon="6.16904">
        <ele>1851.8278</ele>
        <time>2012-06-03T13:23:51Z</time>
      </trkpt>
      <trkpt lat="45.11216" lon="6.16889">
        <ele>1843.5691</ele>
        <time>2012-06-03T13:24:42Z</time>
      </trkpt>
      <trkpt lat="45.11201" lon="6.16871">
        <ele>1846.3087</ele>
        <time>2012-06-03T13:24:58Z</time>
      </trkpt>
      <trkpt lat="45.11185" lon="6.16857">
        <ele>1846.999</ele>
        <time>2012-06-03T13:25:05Z</time>
      </trkpt>
      <trkpt lat="45.11171" lon="6.1684">
        <ele>1846.3335</ele>
        <time>2012-06-03T13:25:14Z</time>
      </trkpt>
      <trkpt lat="45.11153" lon="6.16838">
        <ele>1845.0532</ele>
        <time>2012-06-03T13:25:24Z</time>
      </trkpt>
      <trkpt lat="45.11133" lon="6.16842">
        <ele>1843.9203</ele>
        <time>2012-06-03T13:25:31Z</time>
      </trkpt>
      <trkpt lat="45.11114" lon="6.16844">
        <ele>1842.139</ele>
        <time>2012-06-03T13:25:38Z</time>
      </trkpt>
      <trkpt lat="45.11096" lon="6.16848">
        <ele>1839.9421</ele>
        <time>2012-06-03T13:25:46Z</time>
      </trkpt>
      <trkpt lat="45.11097" lon="6.16874">
        <ele>1830.2175</ele>
        <time>2012-06-03T13:26:16Z</time>
      </trkpt>
      <trkpt lat="45.11081" lon="6.16887">
        <ele>1825.9888</ele>
        <time>2012-06-03T13:26:33Z</time>
      </trkpt>
      <trkpt lat="45.11062" lon="6.16888">
        <ele>1820.2277</ele>
        <time>2012-06-03T13:27:12Z</time>
      </trkpt>
      <trkpt lat="45.11043" lon="6.16884">
        <ele>1807.1084</ele>
        <time>2012-06-03T13:27:41Z</time>
      </trkpt>
      <trkpt lat="45.11034" lon="6.16861">
        <ele>1798.7362</ele>
        <time>2012-06-03T13:28:00Z</time>
      </trkpt>
      <trkpt lat="45.11016" lon="6.16863">
        <ele>1798.8352</ele>
        <time>2012-06-03T13:28:21Z</time>
      </trkpt>
      <trkpt lat="45.10994" lon="6.16858">
        <ele>1798.6749</ele>
        <time>2012-06-03T13:28:49Z</time>
      </trkpt>
      <trkpt lat="45.10977" lon="6.16847">
        <ele>1797.1307</ele>
        <time>2012-06-03T13:28:55Z</time>
      </trkpt>
      <trkpt lat="45.10958" lon="6.16851">
        <ele>1792.9249</ele>
        <time>2012-06-03T13:29:03Z</time>
      </trkpt>
      <trkpt lat="45.1094" lon="6.16847">
        <ele>1781.7537</ele>
        <time>2012-06-03T13:29:29Z</time>
      </trkpt>
      <trkpt lat="45.10922" lon="6.16836">
        <ele>1781.6635</ele>
        <time>2012-06-03T13:29:56Z</time>
      </trkpt>
      <trkpt lat="45.10914" lon="6.16811">
        <ele>1780.9551</ele>
        <time>2012-06-03T13:30:04Z</time>
      </trkpt>
      <trkpt lat="45.10901" lon="6.16792">
        <ele>1777.076</ele>
        <time>2012-06-03T13:30:29Z</time>
      </trkpt>
      <trkpt lat="45.10886" lon="6.16775">
        <ele>1774.7734</ele>
        <time>2012-06-03T13:30:41Z</time>
      </trkpt>
      <trkpt lat="45.10867" lon="6.16769">
        <ele>1775.9279</ele>
        <time>2012-06-03T13:31:00Z</time>
      </trkpt>
      <trkpt lat="45.1085" lon="6.1678">
        <ele>1778.0714</ele>
        <time>2012-06-03T13:31:21Z</time>
      </trkpt>
      <trkpt lat="45.10831" lon="6.16788">
        <ele>1779.5743</ele>
        <time>2012-06-03T13:31:32Z</time>
      </trkpt>
      <trkpt lat="45.10814" lon="6.16792">
        <ele>1781.1038</ele>
        <time>2012-06-03T13:31:44Z</time>
      </trkpt>
      <trkpt lat="45.10796" lon="6.16781">
        <ele>1781.3193</ele>
        <time>2012-06-03T13:31:57Z</time>
      </trkpt>
      <trkpt lat="45.10783" lon="6.16762">
        <ele>1782.0315</ele>
        <time>2012-06-03T13:32:13Z</time>
      </trkpt>
      <trkpt lat="45.10802" lon="6.16758">
        <ele>1798.8282</ele>
        <time>2012-06-03T13:32:43Z</time>
      </trkpt>
      <trkpt lat="45.10819" lon="6.16749">
        <ele>1800.4639</ele>
        <time>2012-06-03T13:33:00Z</time>
      </trkpt>
      <trkpt lat="45.10805" lon="6.16733">
        <ele>1813.4336</ele>
        <time>2012-06-03T13:33:45Z</time>
      </trkpt>
      <trkpt lat="45.1082" lon="6.1672">
        <ele>1816.7332</ele>
        <time>2012-06-03T13:34:00Z</time>
      </trkpt>
      <trkpt lat="45.10804" lon="6.16702">
        <ele>1826.9509</ele>
        <time>2012-06-03T13:34:20Z</time>
      </trkpt>
      <trkpt lat="45.10786" lon="6.16693">
        <ele>1838.3905</ele>
        <time>2012-06-03T13:34:32Z</time>
      </trkpt>
      <trkpt lat="45.10769" lon="6.16702">
        <ele>1849.4343</ele>
        <time>2012-06-03T13:34:44Z</time>
      </trkpt>
      <trkpt lat="45.1078" lon="6.1668">
        <ele>1849.8253</ele>
        <time>2012-06-03T13:34:59Z</time>
      </trkpt>
      <trkpt lat="45.10787" lon="6.16655">
        <ele>1833.3646</ele>
        <time>2012-06-03T13:35:07Z</time>
      </trkpt>
      <trkpt lat="45.10772" lon="6.1664">
        <ele>1809.7015</ele>
        <time>2012-06-03T13:35:38Z</time>
      </trkpt>
      <trkpt lat="45.10772" lon="6.16666">
        <ele>1737.614</ele>
        <time>2012-06-03T13:36:25Z</time>
      </trkpt>
      <trkpt lat="45.1076" lon="6.16647">
        <ele>1703.9537</ele>
        <time>2012-06-03T13:39:49Z</time>
      </trkpt>
      <trkpt lat="45.10741" lon="6.16651">
        <ele>1711.1881</ele>
        <time>2012-06-03T13:40:43Z</time>
      </trkpt>
      <trkpt lat="45.10722" lon="6.16649">
        <ele>1712.3536</ele>
        <time>2012-06-03T13:41:01Z</time>
      </trkpt>
      <trkpt lat="45.10704" lon="6.16646">
        <ele>1715.6685</ele>
        <time>2012-06-03T13:41:28Z</time>
      </trkpt>
      <trkpt lat="45.10689" lon="6.16661">
        <ele>1717.0363</ele>
        <time>2012-06-03T13:42:06Z</time>
      </trkpt>
      <trkpt lat="45.10697" lon="6.16684">
        <ele>1714.7914</ele>
        <time>2012-06-03T13:42:33Z</time>
      </trkpt>
      <trkpt lat="45.10708" lon="6.16705">
        <ele>1708.726</ele>
        <time>2012-06-03T13:43:23Z</time>
      </trkpt>
      <trkpt lat="45.10688" lon="6.16704">
        <ele>1709.8024</ele>
        <time>2012-06-03T13:43:35Z</time>
      </trkpt>
      <trkpt lat="45.10667" lon="6.16703">
        <ele>1709.4766</ele>
        <time>2012-06-03T13:43:40Z</time>
      </trkpt>
      <trkpt lat="45.10649" lon="6.16697">
        <ele>1708.9839</ele>
        <time>2012-06-03T13:43:46Z</time>
      </trkpt>
      <trkpt lat="45.1063" lon="6.1669">
        <ele>1708.1432</ele>
        <time>2012-06-03T13:43:55Z</time>
      </trkpt>
      <trkpt lat="45.10611" lon="6.16683">
        <ele>1707.6638</ele>
        <time>2012-06-03T13:44:03Z</time>
      </trkpt>
      <trkpt lat="45.10593" lon="6.16677">
        <ele>1707.3762</ele>
        <time>2012-06-03T13:44:11Z</time>
      </trkpt>
      <trkpt lat="45.1058" lon="6.16658">
        <ele>1706.9908</ele>
        <time>2012-06-03T13:44:19Z</time>
      </trkpt>
      <trkpt lat="45.10568" lon="6.16636">
        <ele>1703.0225</ele>
        <time>2012-06-03T13:44:25Z</time>
      </trkpt>
      <trkpt lat="45.1056" lon="6.16613">
        <ele>1691.226</ele>
        <time>2012-06-03T13:44:32Z</time>
      </trkpt>
      <trkpt lat="45.10545" lon="6.16595">
        <ele>1679.146</ele>
        <time>2012-06-03T13:44:40Z</time>
      </trkpt>
      <trkpt lat="45.10531" lon="6.16574">
        <ele>1671.6821</ele>
        <time>2012-06-03T13:44:47Z</time>
      </trkpt>
      <trkpt lat="45.10511" lon="6.1656">
        <ele>1667.1385</ele>
        <time>2012-06-03T13:44:53Z</time>
      </trkpt>
      <trkpt lat="45.10494" lon="6.16548">
        <ele>1663.8748</ele>
        <time>2012-06-03T13:44:59Z</time>
      </trkpt>
      <trkpt lat="45.10475" lon="6.16533">
        <ele>1661.7795</ele>
        <time>2012-06-03T13:45:04Z</time>
      </trkpt>
      <trkpt lat="45.10461" lon="6.16518">
        <ele>1659.2336</ele>
        <time>2012-06-03T13:45:15Z</time>
      </trkpt>
      <trkpt lat="45.1045" lon="6.16497">
        <ele>1659.621</ele>
        <time>2012-06-03T13:45:33Z</time>
      </trkpt>
      <trkpt lat="45.10436" lon="6.16479">
        <ele>1662.0677</ele>
        <time>2012-06-03T13:45:50Z</time>
      </trkpt>
      <trkpt lat="45.10417" lon="6.16476">
        <ele>1662.8052</ele>
        <time>2012-06-03T13:46:11Z</time>
      </trkpt>
      <trkpt lat="45.10398" lon="6.16481">
        <ele>1661.6399</ele>
        <time>2012-06-03T13:46:17Z</time>
      </trkpt>
      <trkpt lat="45.10379" lon="6.16479">
        <ele>1660.1044</ele>
        <time>2012-06-03T13:46:21Z</time>
      </trkpt>
      <trkpt lat="45.1036" lon="6.16473">
        <ele>1658.0028</ele>
        <time>2012-06-03T13:46:25Z</time>
      </trkpt>
      <trkpt lat="45.10341" lon="6.16462">
        <ele>1655.6351</ele>
        <time>2012-06-03T13:46:30Z</time>
      </trkpt>
      <trkpt lat="45.10323" lon="6.16457">
        <ele>1654.0453</ele>
        <time>2012-06-03T13:46:35Z</time>
      </trkpt>
      <trkpt lat="45.10306" lon="6.16463">
        <ele>1653.0369</ele>
        <time>2012-06-03T13:46:39Z</time>
      </trkpt>
      <trkpt lat="45.10285" lon="6.16462">
        <ele>1651.7815</ele>
        <time>2012-06-03T13:46:43Z</time>
      </trkpt>
      <trkpt lat="45.10263" lon="6.16452">
        <ele>1649.673</ele>
        <time>2012-06-03T13:46:47Z</time>
      </trkpt>
      <trkpt lat="45.10246" lon="6.16442">
        <ele>1647.8295</ele>
        <time>2012-06-03T13:46:50Z</time>
      </trkpt>
      <trkpt lat="45.10227" lon="6.16433">
        <ele>1645.9783</ele>
        <time>2012-06-03T13:46:53Z</time>
      </trkpt>
      <trkpt lat="45.10207" lon="6.16428">
        <ele>1644.2255</ele>
        <time>2012-06-03T13:46:56Z</time>
      </trkpt>
      <trkpt lat="45.10186" lon="6.16422">
        <ele>1642.0494</ele>
        <time>2012-06-03T13:47:00Z</time>
      </trkpt>
      <trkpt lat="45.10166" lon="6.16412">
        <ele>1639.7289</ele>
        <time>2012-06-03T13:47:04Z</time>
      </trkpt>
      <trkpt lat="45.10148" lon="6.16409">
        <ele>1637.85</ele>
        <time>2012-06-03T13:47:07Z</time>
      </trkpt>
      <trkpt lat="45.10125" lon="6.16409">
        <ele>1635.2645</ele>
        <time>2012-06-03T13:47:11Z</time>
      </trkpt>
      <trkpt lat="45.10102" lon="6.16415">
        <ele>1633.7211</ele>
        <time>2012-06-03T13:47:15Z</time>
      </trkpt>
      <trkpt lat="45.10083" lon="6.16425">
        <ele>1632.8826</ele>
        <time>2012-06-03T13:47:18Z</time>
      </trkpt>
      <trkpt lat="45.10065" lon="6.16436">
        <ele>1632.0632</ele>
        <time>2012-06-03T13:47:21Z</time>
      </trkpt>
      <trkpt lat="45.10047" lon="6.16444">
        <ele>1631.144</ele>
        <time>2012-06-03T13:47:24Z</time>
      </trkpt>
      <trkpt lat="45.10026" lon="6.16452">
        <ele>1629.8087</ele>
        <time>2012-06-03T13:47:28Z</time>
      </trkpt>
      <trkpt lat="45.1001" lon="6.16464">
        <ele>1627.0427</ele>
        <time>2012-06-03T13:47:35Z</time>
      </trkpt>
      <trkpt lat="45.09991" lon="6.16471">
        <ele>1617.1427</ele>
        <time>2012-06-03T13:48:36Z</time>
      </trkpt>
      <trkpt lat="45.09968" lon="6.16472">
        <ele>1615.0143</ele>
        <time>2012-06-03T13:48:41Z</time>
      </trkpt>
      <trkpt lat="45.09948" lon="6.16476">
        <ele>1613.6818</ele>
        <time>2012-06-03T13:48:45Z</time>
      </trkpt>
      <trkpt lat="45.09927" lon="6.16474">
        <ele>1611.8816</ele>
        <time>2012-06-03T13:48:49Z</time>
      </trkpt>
      <trkpt lat="45.09905" lon="6.16462">
        <ele>1609.4308</ele>
        <time>2012-06-03T13:48:53Z</time>
      </trkpt>
      <trkpt lat="45.09889" lon="6.1645">
        <ele>1607.3116</ele>
        <time>2012-06-03T13:48:56Z</time>
      </trkpt>
      <trkpt lat="45.09872" lon="6.16438">
        <ele>1605.3082</ele>
        <time>2012-06-03T13:48:59Z</time>
      </trkpt>
      <trkpt lat="45.09855" lon="6.16426">
        <ele>1603.6538</ele>
        <time>2012-06-03T13:49:02Z</time>
      </trkpt>
      <trkpt lat="45.09837" lon="6.16411">
        <ele>1601.987</ele>
        <time>2012-06-03T13:49:05Z</time>
      </trkpt>
      <trkpt lat="45.09822" lon="6.16394">
        <ele>1600.2948</ele>
        <time>2012-06-03T13:49:08Z</time>
      </trkpt>
      <trkpt lat="45.09807" lon="6.16378">
        <ele>1598.3949</ele>
        <time>2012-06-03T13:49:11Z</time>
      </trkpt>
      <trkpt lat="45.09791" lon="6.16356">
        <ele>1596.4061</ele>
        <time>2012-06-03T13:49:15Z</time>
      </trkpt>
      <trkpt lat="45.09772" lon="6.16337">
        <ele>1594.9065</ele>
        <time>2012-06-03T13:49:19Z</time>
      </trkpt>
      <trkpt lat="45.09757" lon="6.16321">
        <ele>1593.7593</ele>
        <time>2012-06-03T13:49:22Z</time>
      </trkpt>
      <trkpt lat="45.09743" lon="6.16303">
        <ele>1592.3394</ele>
        <time>2012-06-03T13:49:25Z</time>
      </trkpt>
      <trkpt lat="45.0973" lon="6.16283">
        <ele>1590.62</ele>
        <time>2012-06-03T13:49:28Z</time>
      </trkpt>
      <trkpt lat="45.09717" lon="6.16264">
        <ele>1588.4774</ele>
        <time>2012-06-03T13:49:31Z</time>
      </trkpt>
      <trkpt lat="45.09703" lon="6.16244">
        <ele>1585.483</ele>
        <time>2012-06-03T13:49:35Z</time>
      </trkpt>
      <trkpt lat="45.09707" lon="6.16272">
        <ele>1581.875</ele>
        <time>2012-06-03T13:49:43Z</time>
      </trkpt>
      <trkpt lat="45.09721" lon="6.16297">
        <ele>1581.3881</ele>
        <time>2012-06-03T13:49:47Z</time>
      </trkpt>
      <trkpt lat="45.09732" lon="6.16323">
        <ele>1581.2563</ele>
        <time>2012-06-03T13:49:51Z</time>
      </trkpt>
      <trkpt lat="45.09743" lon="6.16352">
        <ele>1581.0248</ele>
        <time>2012-06-03T13:49:55Z</time>
      </trkpt>
      <trkpt lat="45.0975" lon="6.16378">
        <ele>1581.3309</ele>
        <time>2012-06-03T13:49:58Z</time>
      </trkpt>
      <trkpt lat="45.09755" lon="6.16403">
        <ele>1581.5321</ele>
        <time>2012-06-03T13:50:01Z</time>
      </trkpt>
      <trkpt lat="45.09763" lon="6.1643">
        <ele>1582.4218</ele>
        <time>2012-06-03T13:50:05Z</time>
      </trkpt>
      <trkpt lat="45.09747" lon="6.16416">
        <ele>1580.9946</ele>
        <time>2012-06-03T13:50:10Z</time>
      </trkpt>
      <trkpt lat="45.09736" lon="6.16394">
        <ele>1578.2667</ele>
        <time>2012-06-03T13:50:13Z</time>
      </trkpt>
      <trkpt lat="45.09719" lon="6.1638">
        <ele>1575.255</ele>
        <time>2012-06-03T13:50:16Z</time>
      </trkpt>
      <trkpt lat="45.09698" lon="6.16381">
        <ele>1573.7109</ele>
        <time>2012-06-03T13:50:19Z</time>
      </trkpt>
      <trkpt lat="45.0968" lon="6.16395">
        <ele>1572.9752</ele>
        <time>2012-06-03T13:50:22Z</time>
      </trkpt>
      <trkpt lat="45.09662" lon="6.16404">
        <ele>1572.6273</ele>
        <time>2012-06-03T13:50:25Z</time>
      </trkpt>
      <trkpt lat="45.09641" lon="6.16394">
        <ele>1571.0934</ele>
        <time>2012-06-03T13:50:29Z</time>
      </trkpt>
      <trkpt lat="45.0963" lon="6.16373">
        <ele>1567.9241</ele>
        <time>2012-06-03T13:50:32Z</time>
      </trkpt>
      <trkpt lat="45.09613" lon="6.16357">
        <ele>1564.8511</ele>
        <time>2012-06-03T13:50:35Z</time>
      </trkpt>
      <trkpt lat="45.09596" lon="6.16344">
        <ele>1562.6483</ele>
        <time>2012-06-03T13:50:38Z</time>
      </trkpt>
      <trkpt lat="45.09575" lon="6.16331">
        <ele>1558.8649</ele>
        <time>2012-06-03T13:50:42Z</time>
      </trkpt>
      <trkpt lat="45.09556" lon="6.16325">
        <ele>1556.7838</ele>
        <time>2012-06-03T13:50:45Z</time>
      </trkpt>
      <trkpt lat="45.09536" lon="6.16323">
        <ele>1555.02</ele>
        <time>2012-06-03T13:50:48Z</time>
      </trkpt>
      <trkpt lat="45.09515" lon="6.16321">
        <ele>1552.7697</ele>
        <time>2012-06-03T13:50:51Z</time>
      </trkpt>
      <trkpt lat="45.09493" lon="6.16318">
        <ele>1550.2375</ele>
        <time>2012-06-03T13:50:54Z</time>
      </trkpt>
      <trkpt lat="45.09473" lon="6.16314">
        <ele>1547.6816</ele>
        <time>2012-06-03T13:50:57Z</time>
      </trkpt>
      <trkpt lat="45.09451" lon="6.16311">
        <ele>1544.9363</ele>
        <time>2012-06-03T13:51:00Z</time>
      </trkpt>
      <trkpt lat="45.09429" lon="6.16315">
        <ele>1542.864</ele>
        <time>2012-06-03T13:51:03Z</time>
      </trkpt>
      <trkpt lat="45.09411" lon="6.16329">
        <ele>1541.7742</ele>
        <time>2012-06-03T13:51:06Z</time>
      </trkpt>
      <trkpt lat="45.09395" lon="6.16346">
        <ele>1541.2957</ele>
        <time>2012-06-03T13:51:09Z</time>
      </trkpt>
      <trkpt lat="45.09375" lon="6.1635">
        <ele>1540.4219</ele>
        <time>2012-06-03T13:51:12Z</time>
      </trkpt>
      <trkpt lat="45.09352" lon="6.16342">
        <ele>1539.183</ele>
        <time>2012-06-03T13:51:15Z</time>
      </trkpt>
      <trkpt lat="45.09328" lon="6.16337">
        <ele>1537.7853</ele>
        <time>2012-06-03T13:51:18Z</time>
      </trkpt>
      <trkpt lat="45.09304" lon="6.16333">
        <ele>1535.8894</ele>
        <time>2012-06-03T13:51:21Z</time>
      </trkpt>
      <trkpt lat="45.09282" lon="6.16326">
        <ele>1533.1083</ele>
        <time>2012-06-03T13:51:24Z</time>
      </trkpt>
      <trkpt lat="45.09262" lon="6.16311">
        <ele>1529.6428</ele>
        <time>2012-06-03T13:51:27Z</time>
      </trkpt>
      <trkpt lat="45.09246" lon="6.16294">
        <ele>1527.1261</ele>
        <time>2012-06-03T13:51:30Z</time>
      </trkpt>
      <trkpt lat="45.09228" lon="6.163">
        <ele>1524.777</ele>
        <time>2012-06-03T13:51:34Z</time>
      </trkpt>
      <trkpt lat="45.09229" lon="6.16332">
        <ele>1524.328</ele>
        <time>2012-06-03T13:51:37Z</time>
      </trkpt>
      <trkpt lat="45.09229" lon="6.16367">
        <ele>1524.5778</ele>
        <time>2012-06-03T13:51:40Z</time>
      </trkpt>
      <trkpt lat="45.09225" lon="6.16398">
        <ele>1524.3408</ele>
        <time>2012-06-03T13:51:43Z</time>
      </trkpt>
      <trkpt lat="45.09212" lon="6.16424">
        <ele>1524.6566</ele>
        <time>2012-06-03T13:51:47Z</time>
      </trkpt>
      <trkpt lat="45.0919" lon="6.16409">
        <ele>1524.1139</ele>
        <time>2012-06-03T13:51:51Z</time>
      </trkpt>
      <trkpt lat="45.09176" lon="6.16392">
        <ele>1523.1133</ele>
        <time>2012-06-03T13:51:53Z</time>
      </trkpt>
      <trkpt lat="45.09158" lon="6.16381">
        <ele>1521.5691</ele>
        <time>2012-06-03T13:51:55Z</time>
      </trkpt>
      <trkpt lat="45.09137" lon="6.16365">
        <ele>1517.1544</ele>
        <time>2012-06-03T13:51:58Z</time>
      </trkpt>
      <trkpt lat="45.09115" lon="6.16352">
        <ele>1513.6842</ele>
        <time>2012-06-03T13:52:01Z</time>
      </trkpt>
      <trkpt lat="45.09091" lon="6.16338">
        <ele>1510.6265</ele>
        <time>2012-06-03T13:52:04Z</time>
      </trkpt>
      <trkpt lat="45.09069" lon="6.16326">
        <ele>1507.3848</ele>
        <time>2012-06-03T13:52:07Z</time>
      </trkpt>
      <trkpt lat="45.09047" lon="6.16334">
        <ele>1505.3595</ele>
        <time>2012-06-03T13:52:10Z</time>
      </trkpt>
      <trkpt lat="45.09032" lon="6.16358">
        <ele>1503.8816</ele>
        <time>2012-06-03T13:52:13Z</time>
      </trkpt>
      <trkpt lat="45.09012" lon="6.16367">
        <ele>1502.2983</ele>
        <time>2012-06-03T13:52:17Z</time>
      </trkpt>
      <trkpt lat="45.08996" lon="6.16351">
        <ele>1499.1589</ele>
        <time>2012-06-03T13:52:20Z</time>
      </trkpt>
      <trkpt lat="45.08977" lon="6.16334">
        <ele>1495.0752</ele>
        <time>2012-06-03T13:52:24Z</time>
      </trkpt>
      <trkpt lat="45.08957" lon="6.16327">
        <ele>1493.1289</ele>
        <time>2012-06-03T13:52:27Z</time>
      </trkpt>
      <trkpt lat="45.08937" lon="6.1631">
        <ele>1491.503</ele>
        <time>2012-06-03T13:52:30Z</time>
      </trkpt>
      <trkpt lat="45.08919" lon="6.16291">
        <ele>1489.5234</ele>
        <time>2012-06-03T13:52:33Z</time>
      </trkpt>
      <trkpt lat="45.08901" lon="6.16274">
        <ele>1487.1976</ele>
        <time>2012-06-03T13:52:36Z</time>
      </trkpt>
      <trkpt lat="45.08881" lon="6.16255">
        <ele>1485.1118</ele>
        <time>2012-06-03T13:52:39Z</time>
      </trkpt>
      <trkpt lat="45.08865" lon="6.16231">
        <ele>1481.9865</ele>
        <time>2012-06-03T13:52:42Z</time>
      </trkpt>
      <trkpt lat="45.08846" lon="6.16209">
        <ele>1478.718</ele>
        <time>2012-06-03T13:52:45Z</time>
      </trkpt>
      <trkpt lat="45.08826" lon="6.16187">
        <ele>1475.5</ele>
        <time>2012-06-03T13:52:48Z</time>
      </trkpt>
      <trkpt lat="45.08807" lon="6.16167">
        <ele>1472.73</ele>
        <time>2012-06-03T13:52:51Z</time>
      </trkpt>
      <trkpt lat="45.08785" lon="6.16151">
        <ele>1470.3035</ele>
        <time>2012-06-03T13:52:54Z</time>
      </trkpt>
      <trkpt lat="45.08759" lon="6.16141">
        <ele>1468.1345</ele>
        <time>2012-06-03T13:52:57Z</time>
      </trkpt>
      <trkpt lat="45.08734" lon="6.16132">
        <ele>1466.018</ele>
        <time>2012-06-03T13:53:00Z</time>
      </trkpt>
      <trkpt lat="45.08708" lon="6.16125">
        <ele>1464.3188</ele>
        <time>2012-06-03T13:53:03Z</time>
      </trkpt>
      <trkpt lat="45.08683" lon="6.16119">
        <ele>1461.8691</ele>
        <time>2012-06-03T13:53:06Z</time>
      </trkpt>
      <trkpt lat="45.08659" lon="6.16122">
        <ele>1458.9357</ele>
        <time>2012-06-03T13:53:09Z</time>
      </trkpt>
      <trkpt lat="45.08638" lon="6.16136">
        <ele>1456.9215</ele>
        <time>2012-06-03T13:53:12Z</time>
      </trkpt>
      <trkpt lat="45.08614" lon="6.16139">
        <ele>1455.2937</ele>
        <time>2012-06-03T13:53:15Z</time>
      </trkpt>
      <trkpt lat="45.08591" lon="6.16122">
        <ele>1453.557</ele>
        <time>2012-06-03T13:53:18Z</time>
      </trkpt>
      <trkpt lat="45.08573" lon="6.16115">
        <ele>1452.4437</ele>
        <time>2012-06-03T13:53:20Z</time>
      </trkpt>
      <trkpt lat="45.08547" lon="6.16111">
        <ele>1450.2172</ele>
        <time>2012-06-03T13:53:23Z</time>
      </trkpt>
      <trkpt lat="45.08529" lon="6.16113">
        <ele>1448.2588</ele>
        <time>2012-06-03T13:53:25Z</time>
      </trkpt>
      <trkpt lat="45.0851" lon="6.16117">
        <ele>1446.4948</ele>
        <time>2012-06-03T13:53:27Z</time>
      </trkpt>
      <trkpt lat="45.08491" lon="6.16121">
        <ele>1444.6025</ele>
        <time>2012-06-03T13:53:29Z</time>
      </trkpt>
      <trkpt lat="45.08473" lon="6.16125">
        <ele>1442.6631</ele>
        <time>2012-06-03T13:53:31Z</time>
      </trkpt>
      <trkpt lat="45.08453" lon="6.16129">
        <ele>1440.6971</ele>
        <time>2012-06-03T13:53:33Z</time>
      </trkpt>
      <trkpt lat="45.08434" lon="6.16132">
        <ele>1438.7163</ele>
        <time>2012-06-03T13:53:35Z</time>
      </trkpt>
      <trkpt lat="45.08416" lon="6.16131">
        <ele>1436.7709</ele>
        <time>2012-06-03T13:53:37Z</time>
      </trkpt>
      <trkpt lat="45.08391" lon="6.16125">
        <ele>1433.913</ele>
        <time>2012-06-03T13:53:40Z</time>
      </trkpt>
      <trkpt lat="45.08369" lon="6.16114">
        <ele>1431.2323</ele>
        <time>2012-06-03T13:53:43Z</time>
      </trkpt>
      <trkpt lat="45.08354" lon="6.16099">
        <ele>1428.7745</ele>
        <time>2012-06-03T13:53:47Z</time>
      </trkpt>
      <trkpt lat="45.08338" lon="6.16084">
        <ele>1427.1572</ele>
        <time>2012-06-03T13:53:52Z</time>
      </trkpt>
      <trkpt lat="45.08322" lon="6.16066">
        <ele>1425.8446</ele>
        <time>2012-06-03T13:53:56Z</time>
      </trkpt>
      <trkpt lat="45.08307" lon="6.16052">
        <ele>1424.791</ele>
        <time>2012-06-03T13:53:59Z</time>
      </trkpt>
      <trkpt lat="45.08289" lon="6.16039">
        <ele>1423.1674</ele>
        <time>2012-06-03T13:54:03Z</time>
      </trkpt>
      <trkpt lat="45.08268" lon="6.16033">
        <ele>1421.1147</ele>
        <time>2012-06-03T13:54:08Z</time>
      </trkpt>
      <trkpt lat="45.08248" lon="6.16033">
        <ele>1419.6011</ele>
        <time>2012-06-03T13:54:12Z</time>
      </trkpt>
      <trkpt lat="45.0823" lon="6.16033">
        <ele>1418.3555</ele>
        <time>2012-06-03T13:54:15Z</time>
      </trkpt>
      <trkpt lat="45.08209" lon="6.16029">
        <ele>1416.6772</ele>
        <time>2012-06-03T13:54:19Z</time>
      </trkpt>
      <trkpt lat="45.08188" lon="6.1602">
        <ele>1415.0087</ele>
        <time>2012-06-03T13:54:23Z</time>
      </trkpt>
      <trkpt lat="45.08171" lon="6.16004">
        <ele>1413.6571</ele>
        <time>2012-06-03T13:54:26Z</time>
      </trkpt>
      <trkpt lat="45.08155" lon="6.15979">
        <ele>1411.9774</ele>
        <time>2012-06-03T13:54:29Z</time>
      </trkpt>
      <trkpt lat="45.08143" lon="6.15955">
        <ele>1410.308</ele>
        <time>2012-06-03T13:54:32Z</time>
      </trkpt>
      <trkpt lat="45.08141" lon="6.15983">
        <ele>1407.8423</ele>
        <time>2012-06-03T13:54:41Z</time>
      </trkpt>
      <trkpt lat="45.08152" lon="6.16011">
        <ele>1406.8618</ele>
        <time>2012-06-03T13:54:44Z</time>
      </trkpt>
      <trkpt lat="45.08162" lon="6.16044">
        <ele>1405.4294</ele>
        <time>2012-06-03T13:54:47Z</time>
      </trkpt>
      <trkpt lat="45.08177" lon="6.16073">
        <ele>1403.6501</ele>
        <time>2012-06-03T13:54:50Z</time>
      </trkpt>
      <trkpt lat="45.08193" lon="6.16094">
        <ele>1401.8448</ele>
        <time>2012-06-03T13:54:53Z</time>
      </trkpt>
      <trkpt lat="45.08213" lon="6.16112">
        <ele>1399.6232</ele>
        <time>2012-06-03T13:54:57Z</time>
      </trkpt>
      <trkpt lat="45.08231" lon="6.16126">
        <ele>1397.3176</ele>
        <time>2012-06-03T13:55:02Z</time>
      </trkpt>
      <trkpt lat="45.08244" lon="6.16145">
        <ele>1394.8186</ele>
        <time>2012-06-03T13:55:11Z</time>
      </trkpt>
      <trkpt lat="45.08227" lon="6.16134">
        <ele>1390.5472</ele>
        <time>2012-06-03T13:57:21Z</time>
      </trkpt>
      <trkpt lat="45.0821" lon="6.16119">
        <ele>1388.8124</ele>
        <time>2012-06-03T13:57:28Z</time>
      </trkpt>
      <trkpt lat="45.08193" lon="6.16106">
        <ele>1388.1816</ele>
        <time>2012-06-03T13:57:33Z</time>
      </trkpt>
      <trkpt lat="45.08177" lon="6.16094">
        <ele>1387.7539</ele>
        <time>2012-06-03T13:57:37Z</time>
      </trkpt>
      <trkpt lat="45.08159" lon="6.16082">
        <ele>1387.3013</ele>
        <time>2012-06-03T13:57:41Z</time>
      </trkpt>
      <trkpt lat="45.0814" lon="6.16065">
        <ele>1386.723</ele>
        <time>2012-06-03T13:57:45Z</time>
      </trkpt>
      <trkpt lat="45.08121" lon="6.16044">
        <ele>1386.0474</ele>
        <time>2012-06-03T13:57:49Z</time>
      </trkpt>
      <trkpt lat="45.08107" lon="6.16028">
        <ele>1385.5343</ele>
        <time>2012-06-03T13:57:52Z</time>
      </trkpt>
      <trkpt lat="45.08092" lon="6.1601">
        <ele>1384.9132</ele>
        <time>2012-06-03T13:57:55Z</time>
      </trkpt>
      <trkpt lat="45.08076" lon="6.15991">
        <ele>1384.2136</ele>
        <time>2012-06-03T13:57:58Z</time>
      </trkpt>
      <trkpt lat="45.08059" lon="6.15973">
        <ele>1383.6732</ele>
        <time>2012-06-03T13:58:01Z</time>
      </trkpt>
      <trkpt lat="45.08041" lon="6.15956">
        <ele>1383.1375</ele>
        <time>2012-06-03T13:58:04Z</time>
      </trkpt>
      <trkpt lat="45.08023" lon="6.15942">
        <ele>1382.6473</ele>
        <time>2012-06-03T13:58:07Z</time>
      </trkpt>
      <trkpt lat="45.08006" lon="6.15925">
        <ele>1382.2609</ele>
        <time>2012-06-03T13:58:10Z</time>
      </trkpt>
      <trkpt lat="45.0799" lon="6.15909">
        <ele>1381.9666</ele>
        <time>2012-06-03T13:58:13Z</time>
      </trkpt>
      <trkpt lat="45.07974" lon="6.15895">
        <ele>1381.9377</ele>
        <time>2012-06-03T13:58:16Z</time>
      </trkpt>
      <trkpt lat="45.07958" lon="6.15885">
        <ele>1381.7052</ele>
        <time>2012-06-03T13:58:19Z</time>
      </trkpt>
      <trkpt lat="45.0794" lon="6.15879">
        <ele>1381.2665</ele>
        <time>2012-06-03T13:58:22Z</time>
      </trkpt>
      <trkpt lat="45.07917" lon="6.1587">
        <ele>1380.665</ele>
        <time>2012-06-03T13:58:26Z</time>
      </trkpt>
      <trkpt lat="45.07896" lon="6.15856">
        <ele>1380.1912</ele>
        <time>2012-06-03T13:58:30Z</time>
      </trkpt>
      <trkpt lat="45.0788" lon="6.15843">
        <ele>1379.8372</ele>
        <time>2012-06-03T13:58:33Z</time>
      </trkpt>
      <trkpt lat="45.07862" lon="6.1583">
        <ele>1379.4675</ele>
        <time>2012-06-03T13:58:36Z</time>
      </trkpt>
      <trkpt lat="45.07845" lon="6.15818">
        <ele>1379.235</ele>
        <time>2012-06-03T13:58:39Z</time>
      </trkpt>
      <trkpt lat="45.07828" lon="6.15805">
        <ele>1379.0212</ele>
        <time>2012-06-03T13:58:42Z</time>
      </trkpt>
      <trkpt lat="45.07809" lon="6.15798">
        <ele>1378.7218</ele>
        <time>2012-06-03T13:58:45Z</time>
      </trkpt>
      <trkpt lat="45.07789" lon="6.15797">
        <ele>1378.3485</ele>
        <time>2012-06-03T13:58:48Z</time>
      </trkpt>
      <trkpt lat="45.07769" lon="6.15796">
        <ele>1378.416</ele>
        <time>2012-06-03T13:58:51Z</time>
      </trkpt>
      <trkpt lat="45.07748" lon="6.15792">
        <ele>1378.5321</ele>
        <time>2012-06-03T13:58:54Z</time>
      </trkpt>
      <trkpt lat="45.07728" lon="6.15791">
        <ele>1378.62</ele>
        <time>2012-06-03T13:58:57Z</time>
      </trkpt>
      <trkpt lat="45.07708" lon="6.15789">
        <ele>1378.9369</ele>
        <time>2012-06-03T13:59:00Z</time>
      </trkpt>
      <trkpt lat="45.07688" lon="6.1579">
        <ele>1378.9268</ele>
        <time>2012-06-03T13:59:03Z</time>
      </trkpt>
      <trkpt lat="45.0767" lon="6.15802">
        <ele>1378.7959</ele>
        <time>2012-06-03T13:59:06Z</time>
      </trkpt>
      <trkpt lat="45.07653" lon="6.15819">
        <ele>1379.0344</ele>
        <time>2012-06-03T13:59:09Z</time>
      </trkpt>
      <trkpt lat="45.07633" lon="6.1583">
        <ele>1378.8477</ele>
        <time>2012-06-03T13:59:12Z</time>
      </trkpt>
      <trkpt lat="45.07612" lon="6.15834">
        <ele>1378.3782</ele>
        <time>2012-06-03T13:59:15Z</time>
      </trkpt>
      <trkpt lat="45.07592" lon="6.15831">
        <ele>1377.5566</ele>
        <time>2012-06-03T13:59:18Z</time>
      </trkpt>
      <trkpt lat="45.07574" lon="6.15823">
        <ele>1376.6211</ele>
        <time>2012-06-03T13:59:21Z</time>
      </trkpt>
      <trkpt lat="45.07555" lon="6.15813">
        <ele>1375.7794</ele>
        <time>2012-06-03T13:59:24Z</time>
      </trkpt>
      <trkpt lat="45.07535" lon="6.15805">
        <ele>1375.0197</ele>
        <time>2012-06-03T13:59:27Z</time>
      </trkpt>
      <trkpt lat="45.07514" lon="6.15803">
        <ele>1374.7008</ele>
        <time>2012-06-03T13:59:30Z</time>
      </trkpt>
      <trkpt lat="45.07494" lon="6.15807">
        <ele>1374.6381</ele>
        <time>2012-06-03T13:59:33Z</time>
      </trkpt>
      <trkpt lat="45.07475" lon="6.15809">
        <ele>1374.5663</ele>
        <time>2012-06-03T13:59:36Z</time>
      </trkpt>
      <trkpt lat="45.07456" lon="6.15802">
        <ele>1374.1392</ele>
        <time>2012-06-03T13:59:39Z</time>
      </trkpt>
      <trkpt lat="45.07441" lon="6.15785">
        <ele>1373.3231</ele>
        <time>2012-06-03T13:59:42Z</time>
      </trkpt>
      <trkpt lat="45.07427" lon="6.15767">
        <ele>1372.7272</ele>
        <time>2012-06-03T13:59:45Z</time>
      </trkpt>
      <trkpt lat="45.07411" lon="6.15752">
        <ele>1372.1024</ele>
        <time>2012-06-03T13:59:48Z</time>
      </trkpt>
      <trkpt lat="45.07394" lon="6.15744">
        <ele>1371.695</ele>
        <time>2012-06-03T13:59:51Z</time>
      </trkpt>
      <trkpt lat="45.07378" lon="6.15731">
        <ele>1371.3638</ele>
        <time>2012-06-03T13:59:54Z</time>
      </trkpt>
      <trkpt lat="45.07364" lon="6.15713">
        <ele>1371.0256</ele>
        <time>2012-06-03T13:59:57Z</time>
      </trkpt>
      <trkpt lat="45.07348" lon="6.15697">
        <ele>1370.6908</ele>
        <time>2012-06-03T14:00:00Z</time>
      </trkpt>
      <trkpt lat="45.07331" lon="6.15684">
        <ele>1370.2463</ele>
        <time>2012-06-03T14:00:03Z</time>
      </trkpt>
      <trkpt lat="45.07314" lon="6.15674">
        <ele>1369.8417</ele>
        <time>2012-06-03T14:00:06Z</time>
      </trkpt>
      <trkpt lat="45.07296" lon="6.15665">
        <ele>1369.4397</ele>
        <time>2012-06-03T14:00:09Z</time>
      </trkpt>
      <trkpt lat="45.07279" lon="6.15653">
        <ele>1369.039</ele>
        <time>2012-06-03T14:00:12Z</time>
      </trkpt>
      <trkpt lat="45.07262" lon="6.15641">
        <ele>1368.6823</ele>
        <time>2012-06-03T14:00:15Z</time>
      </trkpt>
      <trkpt lat="45.07246" lon="6.15627">
        <ele>1368.4022</ele>
        <time>2012-06-03T14:00:18Z</time>
      </trkpt>
      <trkpt lat="45.07228" lon="6.1561">
        <ele>1368.1299</ele>
        <time>2012-06-03T14:00:22Z</time>
      </trkpt>
      <trkpt lat="45.07209" lon="6.15594">
        <ele>1367.5176</ele>
        <time>2012-06-03T14:00:26Z</time>
      </trkpt>
      <trkpt lat="45.07189" lon="6.15577">
        <ele>1366.5824</ele>
        <time>2012-06-03T14:00:30Z</time>
      </trkpt>
      <trkpt lat="45.07174" lon="6.15561">
        <ele>1365.7053</ele>
        <time>2012-06-03T14:00:33Z</time>
      </trkpt>
      <trkpt lat="45.07161" lon="6.15544">
        <ele>1364.6166</ele>
        <time>2012-06-03T14:00:36Z</time>
      </trkpt>
      <trkpt lat="45.0715" lon="6.15521">
        <ele>1363.7119</ele>
        <time>2012-06-03T14:00:39Z</time>
      </trkpt>
      <trkpt lat="45.07146" lon="6.15496">
        <ele>1363.6301</ele>
        <time>2012-06-03T14:00:44Z</time>
      </trkpt>
      <trkpt lat="45.07088" lon="6.15517">
        <ele>1393.1161</ele>
        <time>2012-06-03T14:11:25Z</time>
      </trkpt>
      <trkpt lat="45.07106" lon="6.15524">
        <ele>1428.9851</ele>
        <time>2012-06-03T14:11:38Z</time>
      </trkpt>
    </trkseg>
  </trk>
</gpx>